UAL100 KIAH-YSSY
Flight info
| Callsign | UAL100 |
|---|---|
| Flight time | N/A |
| Altitude | 28000 |
| Route | BNDTO6 SAT DCT PNG DCT LIVRO/N0511F300 DCT GODOY DCT 20N120W 14N130W/N0510F320 08N140W 0358N14646W/N0505F330 0407N14642W/N0501F340 02N150W DCT WACOS DCT CUFFY/N0496F360 DCT GITON B580 ELSAX/N0489F380 B580 VESUN DCT VEMLA DCT CBULA DCT BANDA J70 IGDAM H652 BOREE |
| Aircraft | B77W/H-SDE1E2E3FGHIJ2J3J4J5M1RWXY/LB1D1 |
Departure
| Time | N/A |
|---|---|
| Airport | George Bush Intercontinental Airport (KIAH) |
Arrival
| Time | 2026-04-30 20:57 |
|---|---|
| Airport | Sydney Kingsford Smith International Airport (YSSY) |
| Time | Latitude | Longitude | Altitude | Speed | Heading |
|---|---|---|---|---|---|
| 2026-04-30 05:01 | 29.16297 | -99.46145 | 33897 ft | 462 kts | 245° |
| 2026-04-30 05:02 | 29.14733 | -99.49358 | 33903 ft | 462 kts | 245° |
| 2026-04-30 05:02 | 29.11600 | -99.55783 | 33920 ft | 463 kts | 245° |
| 2026-04-30 05:03 | 29.08460 | -99.62213 | 33926 ft | 463 kts | 245° |
| 2026-04-30 05:03 | 29.05341 | -99.68589 | 33923 ft | 463 kts | 245° |
| 2026-04-30 05:04 | 29.02199 | -99.75003 | 33912 ft | 462 kts | 245° |
| 2026-04-30 05:04 | 28.99062 | -99.81398 | 33889 ft | 460 kts | 245° |
| 2026-04-30 05:05 | 28.95941 | -99.87745 | 33863 ft | 456 kts | 245° |
| 2026-04-30 05:05 | 28.92862 | -99.93999 | 33853 ft | 453 kts | 245° |
| 2026-04-30 05:06 | 28.88235 | -100.03385 | 33832 ft | 451 kts | 245° |
| 2026-04-30 05:06 | 28.85154 | -100.09625 | 33831 ft | 451 kts | 245° |
| 2026-04-30 05:07 | 28.82067 | -100.15865 | 33826 ft | 452 kts | 245° |
| 2026-04-30 05:07 | 28.78984 | -100.22088 | 33828 ft | 454 kts | 245° |
| 2026-04-30 05:08 | 28.75863 | -100.28377 | 33830 ft | 455 kts | 245° |
| 2026-04-30 05:08 | 28.72750 | -100.34639 | 33821 ft | 456 kts | 245° |
| 2026-04-30 05:09 | 28.69604 | -100.40960 | 33820 ft | 458 kts | 245° |
| 2026-04-30 05:09 | 28.66472 | -100.47246 | 33818 ft | 459 kts | 245° |
| 2026-04-30 05:10 | 28.63369 | -100.53604 | 33829 ft | 457 kts | 248° |
| 2026-04-30 05:10 | 28.60985 | -100.60229 | 33832 ft | 453 kts | 253° |
| 2026-04-30 05:11 | 28.58747 | -100.66951 | 33832 ft | 453 kts | 252° |
| 2026-04-30 05:11 | 28.56501 | -100.73623 | 33830 ft | 453 kts | 252° |
| 2026-04-30 05:12 | 28.54231 | -100.80324 | 33838 ft | 453 kts | 252° |
| 2026-04-30 05:12 | 28.51958 | -100.87014 | 33840 ft | 452 kts | 252° |
| 2026-04-30 05:13 | 28.49698 | -100.93658 | 33846 ft | 451 kts | 252° |
| 2026-04-30 05:13 | 28.47441 | -101.00280 | 33846 ft | 451 kts | 252° |
| 2026-04-30 05:14 | 28.45159 | -101.06964 | 33857 ft | 451 kts | 252° |
| 2026-04-30 05:14 | 28.42892 | -101.13592 | 33857 ft | 451 kts | 252° |
| 2026-04-30 05:15 | 28.40623 | -101.20213 | 33867 ft | 451 kts | 252° |
| 2026-04-30 05:15 | 28.38334 | -101.26881 | 33868 ft | 452 kts | 252° |
| 2026-04-30 05:16 | 28.36053 | -101.33510 | 33870 ft | 453 kts | 252° |
| 2026-04-30 05:16 | 28.33754 | -101.40182 | 33875 ft | 453 kts | 252° |
| 2026-04-30 05:17 | 28.31459 | -101.46830 | 33886 ft | 454 kts | 251° |
| 2026-04-30 05:17 | 28.29147 | -101.53516 | 33884 ft | 455 kts | 251° |
| 2026-04-30 05:18 | 28.26840 | -101.60175 | 33895 ft | 456 kts | 251° |
| 2026-04-30 05:18 | 28.24505 | -101.66900 | 33888 ft | 456 kts | 251° |
| 2026-04-30 05:19 | 28.22183 | -101.73574 | 33902 ft | 457 kts | 251° |
| 2026-04-30 05:19 | 28.19837 | -101.80310 | 33906 ft | 457 kts | 251° |
| 2026-04-30 05:20 | 28.17493 | -101.87024 | 33921 ft | 458 kts | 251° |
| 2026-04-30 05:20 | 28.15152 | -101.93717 | 33927 ft | 458 kts | 251° |
| 2026-04-30 05:21 | 28.12806 | -102.00415 | 33929 ft | 459 kts | 250° |
| 2026-04-30 05:21 | 28.10441 | -102.07150 | 33948 ft | 459 kts | 251° |
| 2026-04-30 05:22 | 28.08089 | -102.13840 | 33935 ft | 459 kts | 251° |
| 2026-04-30 05:22 | 28.05722 | -102.20563 | 33941 ft | 458 kts | 250° |
| 2026-04-30 05:23 | 28.03362 | -102.27251 | 33936 ft | 457 kts | 250° |
| 2026-04-30 05:23 | 28.01012 | -102.33892 | 33927 ft | 457 kts | 250° |
| 2026-04-30 05:24 | 27.98646 | -102.40568 | 33932 ft | 456 kts | 250° |
| 2026-04-30 05:24 | 27.96291 | -102.47211 | 33921 ft | 456 kts | 250° |
| 2026-04-30 05:25 | 27.93934 | -102.53844 | 33916 ft | 456 kts | 250° |
| 2026-04-30 05:25 | 27.91555 | -102.60524 | 33913 ft | 456 kts | 250° |
| 2026-04-30 05:26 | 27.89190 | -102.67155 | 33905 ft | 456 kts | 250° |
| 2026-04-30 05:26 | 27.86826 | -102.73769 | 33902 ft | 456 kts | 250° |
| 2026-04-30 05:27 | 27.84438 | -102.80438 | 33895 ft | 456 kts | 250° |
| 2026-04-30 05:27 | 27.82058 | -102.87075 | 33887 ft | 456 kts | 250° |
| 2026-04-30 05:28 | 27.79675 | -102.93708 | 33877 ft | 457 kts | 250° |
| 2026-04-30 05:28 | 27.77278 | -103.00367 | 33867 ft | 457 kts | 250° |
| 2026-04-30 05:29 | 27.74885 | -103.07004 | 33861 ft | 457 kts | 250° |
| 2026-04-30 05:29 | 27.72493 | -103.13629 | 33856 ft | 458 kts | 250° |
| 2026-04-30 05:30 | 27.70079 | -103.20301 | 33852 ft | 458 kts | 250° |
| 2026-04-30 05:30 | 27.67681 | -103.26917 | 33855 ft | 457 kts | 250° |
| 2026-04-30 05:31 | 27.65261 | -103.33581 | 33856 ft | 457 kts | 250° |
| 2026-04-30 05:31 | 27.62857 | -103.40185 | 33865 ft | 456 kts | 250° |
| 2026-04-30 05:32 | 27.60437 | -103.46832 | 33862 ft | 457 kts | 250° |
| 2026-04-30 05:32 | 27.58030 | -103.53428 | 33858 ft | 456 kts | 250° |
| 2026-04-30 05:33 | 27.55608 | -103.60050 | 33865 ft | 456 kts | 250° |
| 2026-04-30 05:33 | 27.53182 | -103.66674 | 33861 ft | 457 kts | 250° |
| 2026-04-30 05:34 | 27.50766 | -103.73258 | 33861 ft | 457 kts | 250° |
| 2026-04-30 05:34 | 27.48330 | -103.79886 | 33856 ft | 457 kts | 250° |
| 2026-04-30 05:35 | 27.45905 | -103.86474 | 33857 ft | 457 kts | 249° |
| 2026-04-30 05:35 | 27.43467 | -103.93084 | 33861 ft | 456 kts | 249° |
| 2026-04-30 05:36 | 27.41036 | -103.99663 | 33866 ft | 456 kts | 249° |
| 2026-04-30 05:36 | 27.38590 | -104.06275 | 33864 ft | 456 kts | 249° |
| 2026-04-30 05:37 | 27.36159 | -104.12831 | 33875 ft | 456 kts | 249° |
| 2026-04-30 05:37 | 27.33720 | -104.19401 | 33870 ft | 456 kts | 249° |
| 2026-04-30 05:38 | 27.31257 | -104.26020 | 33871 ft | 456 kts | 249° |
| 2026-04-30 05:38 | 27.28816 | -104.32573 | 33869 ft | 456 kts | 249° |
| 2026-04-30 05:39 | 27.26360 | -104.39152 | 33878 ft | 455 kts | 249° |
| 2026-04-30 05:39 | 27.23917 | -104.45687 | 33871 ft | 455 kts | 249° |
| 2026-04-30 05:40 | 27.21456 | -104.52258 | 33875 ft | 455 kts | 249° |
| 2026-04-30 05:40 | 27.19007 | -104.58788 | 33874 ft | 454 kts | 249° |
| 2026-04-30 05:41 | 27.16560 | -104.65301 | 33879 ft | 454 kts | 249° |
| 2026-04-30 05:41 | 27.14096 | -104.71847 | 33875 ft | 454 kts | 249° |
| 2026-04-30 05:42 | 27.11643 | -104.78352 | 33879 ft | 454 kts | 249° |
| 2026-04-30 05:42 | 27.09191 | -104.84847 | 33875 ft | 453 kts | 249° |
| 2026-04-30 05:43 | 27.06726 | -104.91362 | 33885 ft | 453 kts | 249° |
| 2026-04-30 05:43 | 27.04251 | -104.97895 | 33902 ft | 454 kts | 249° |
| 2026-04-30 05:44 | 27.01783 | -105.04399 | 33904 ft | 455 kts | 249° |
| 2026-04-30 05:44 | 26.99301 | -105.10927 | 33905 ft | 456 kts | 248° |
| 2026-04-30 05:45 | 26.96809 | -105.17473 | 33903 ft | 456 kts | 248° |
| 2026-04-30 05:45 | 26.94317 | -105.24007 | 33906 ft | 457 kts | 248° |
| 2026-04-30 05:46 | 26.91810 | -105.30568 | 33925 ft | 457 kts | 248° |
| 2026-04-30 05:46 | 26.89306 | -105.37112 | 33927 ft | 458 kts | 248° |
| 2026-04-30 05:47 | 26.86787 | -105.43683 | 33938 ft | 458 kts | 248° |
| 2026-04-30 05:47 | 26.84281 | -105.50212 | 33943 ft | 457 kts | 248° |
| 2026-04-30 05:48 | 26.81773 | -105.56733 | 33950 ft | 457 kts | 248° |
| 2026-04-30 05:48 | 26.79254 | -105.63273 | 33958 ft | 457 kts | 248° |
| 2026-04-30 05:49 | 26.76742 | -105.69784 | 33971 ft | 456 kts | 248° |
| 2026-04-30 05:49 | 26.74231 | -105.76283 | 33992 ft | 455 kts | 248° |
| 2026-04-30 05:50 | 26.72128 | -105.81717 | 33986 ft | 455 kts | 248° |
| 2026-04-30 05:50 | 26.69627 | -105.88170 | 33996 ft | 452 kts | 248° |
| 2026-04-30 05:51 | 26.67118 | -105.94634 | 34016 ft | 452 kts | 247° |
| 2026-04-30 05:51 | 26.64622 | -106.01051 | 34031 ft | 451 kts | 247° |
| 2026-04-30 05:52 | 26.62120 | -106.07476 | 34035 ft | 451 kts | 247° |
| 2026-04-30 05:52 | 26.59610 | -106.13913 | 34055 ft | 451 kts | 247° |
| 2026-04-30 05:53 | 26.57108 | -106.20316 | 34072 ft | 450 kts | 247° |
| 2026-04-30 05:53 | 26.54595 | -106.26738 | 34072 ft | 450 kts | 248° |
| 2026-04-30 05:54 | 26.52096 | -106.33118 | 34075 ft | 450 kts | 247° |
| 2026-04-30 05:54 | 26.49579 | -106.39535 | 34093 ft | 449 kts | 247° |
| 2026-04-30 05:55 | 26.47224 | -106.45962 | 34081 ft | 449 kts | 251° |
| 2026-04-30 05:55 | 26.45165 | -106.52550 | 34101 ft | 448 kts | 251° |
| 2026-04-30 05:56 | 26.43122 | -106.59104 | 34079 ft | 448 kts | 251° |
| 2026-04-30 05:56 | 26.41066 | -106.65654 | 34077 ft | 449 kts | 251° |
| 2026-04-30 05:57 | 26.38992 | -106.72230 | 34098 ft | 448 kts | 251° |
| 2026-04-30 05:57 | 26.36913 | -106.78803 | 34062 ft | 449 kts | 251° |
| 2026-04-30 05:58 | 26.34843 | -106.85337 | 34071 ft | 450 kts | 251° |
| 2026-04-30 05:58 | 26.32748 | -106.91940 | 34061 ft | 451 kts | 251° |
| 2026-04-30 05:59 | 26.30655 | -106.98524 | 34056 ft | 454 kts | 251° |
| 2026-04-30 05:59 | 26.28528 | -107.05199 | 34053 ft | 455 kts | 251° |
| 2026-04-30 06:00 | 26.26408 | -107.11842 | 34039 ft | 457 kts | 251° |
| 2026-04-30 06:00 | 26.24277 | -107.18509 | 34040 ft | 459 kts | 250° |
| 2026-04-30 06:01 | 26.22124 | -107.25233 | 34027 ft | 460 kts | 250° |
| 2026-04-30 06:01 | 26.19971 | -107.31942 | 33996 ft | 462 kts | 250° |
| 2026-04-30 06:02 | 26.17797 | -107.38706 | 33982 ft | 463 kts | 250° |
| 2026-04-30 06:02 | 26.15640 | -107.45406 | 33990 ft | 461 kts | 250° |
| 2026-04-30 06:03 | 26.13476 | -107.52117 | 33966 ft | 461 kts | 250° |
| 2026-04-30 06:03 | 26.11298 | -107.58854 | 33958 ft | 460 kts | 250° |
| 2026-04-30 06:04 | 26.09135 | -107.65534 | 33946 ft | 460 kts | 250° |
| 2026-04-30 06:05 | 26.05880 | -107.75566 | 33946 ft | 457 kts | 250° |
| 2026-04-30 06:05 | 26.03725 | -107.82192 | 33938 ft | 456 kts | 250° |
| 2026-04-30 06:06 | 26.01574 | -107.88798 | 33906 ft | 455 kts | 250° |
| 2026-04-30 06:06 | 25.99409 | -107.95431 | 33906 ft | 454 kts | 250° |
| 2026-04-30 06:07 | 25.97260 | -108.02002 | 33889 ft | 453 kts | 250° |
| 2026-04-30 06:07 | 25.95121 | -108.08536 | 33884 ft | 451 kts | 250° |
| 2026-04-30 06:08 | 25.92980 | -108.15060 | 33889 ft | 450 kts | 250° |
| 2026-04-30 06:08 | 25.90830 | -108.21603 | 33872 ft | 449 kts | 250° |
| 2026-04-30 06:09 | 25.88684 | -108.28123 | 33872 ft | 448 kts | 250° |
| 2026-04-30 06:09 | 25.86546 | -108.34609 | 33867 ft | 448 kts | 250° |
| 2026-04-30 06:10 | 25.84411 | -108.41070 | 33870 ft | 447 kts | 250° |
| 2026-04-30 06:10 | 25.82263 | -108.47563 | 33868 ft | 447 kts | 250° |
| 2026-04-30 06:11 | 25.80123 | -108.54019 | 33868 ft | 447 kts | 250° |
| 2026-04-30 06:11 | 25.77972 | -108.60499 | 33871 ft | 447 kts | 250° |
| 2026-04-30 06:12 | 25.75827 | -108.66949 | 33870 ft | 447 kts | 250° |
| 2026-04-30 06:12 | 25.73657 | -108.73461 | 33875 ft | 448 kts | 250° |
| 2026-04-30 06:13 | 25.71504 | -108.79915 | 33875 ft | 448 kts | 250° |
| 2026-04-30 06:13 | 25.69324 | -108.86436 | 33875 ft | 449 kts | 250° |
| 2026-04-30 06:14 | 25.67157 | -108.92907 | 33877 ft | 449 kts | 249° |
| 2026-04-30 06:14 | 25.64978 | -108.99406 | 33884 ft | 449 kts | 249° |
| 2026-04-30 06:15 | 25.62809 | -109.05859 | 33884 ft | 448 kts | 249° |
| 2026-04-30 06:15 | 25.60628 | -109.12343 | 33888 ft | 448 kts | 249° |
| 2026-04-30 06:16 | 25.58456 | -109.18786 | 33886 ft | 446 kts | 249° |
| 2026-04-30 06:16 | 25.56290 | -109.25200 | 33886 ft | 444 kts | 249° |
| 2026-04-30 06:17 | 25.54132 | -109.31582 | 33891 ft | 443 kts | 249° |
| 2026-04-30 06:17 | 25.51966 | -109.37977 | 33893 ft | 441 kts | 249° |
| 2026-04-30 06:18 | 25.49818 | -109.44308 | 33894 ft | 440 kts | 249° |
| 2026-04-30 06:18 | 25.47667 | -109.50636 | 33893 ft | 438 kts | 249° |
| 2026-04-30 06:19 | 25.45527 | -109.56923 | 33894 ft | 438 kts | 249° |
| 2026-04-30 06:19 | 25.43374 | -109.63238 | 33894 ft | 437 kts | 249° |
| 2026-04-30 06:20 | 25.41227 | -109.69526 | 33898 ft | 438 kts | 249° |
| 2026-04-30 06:20 | 25.39080 | -109.75800 | 33896 ft | 438 kts | 249° |
| 2026-04-30 06:21 | 25.36911 | -109.82132 | 33897 ft | 439 kts | 248° |
| 2026-04-30 06:21 | 25.34749 | -109.88432 | 33900 ft | 440 kts | 248° |
| 2026-04-30 06:22 | 25.32561 | -109.94800 | 33899 ft | 441 kts | 248° |
| 2026-04-30 06:22 | 25.30385 | -110.01121 | 33899 ft | 442 kts | 248° |
| 2026-04-30 06:23 | 25.28197 | -110.07467 | 33904 ft | 443 kts | 248° |
| 2026-04-30 06:23 | 25.25991 | -110.13854 | 33905 ft | 444 kts | 248° |
| 2026-04-30 06:24 | 25.23779 | -110.20250 | 33905 ft | 444 kts | 248° |
| 2026-04-30 06:24 | 25.21575 | -110.26610 | 33904 ft | 445 kts | 248° |
| 2026-04-30 06:25 | 25.19365 | -110.32980 | 33903 ft | 445 kts | 248° |
| 2026-04-30 06:25 | 25.17154 | -110.39341 | 33903 ft | 445 kts | 248° |
| 2026-04-30 06:26 | 25.14929 | -110.45732 | 33908 ft | 445 kts | 248° |
| 2026-04-30 06:26 | 25.12717 | -110.52077 | 33912 ft | 445 kts | 248° |
| 2026-04-30 06:27 | 25.10499 | -110.58426 | 33913 ft | 445 kts | 248° |
| 2026-04-30 06:27 | 25.08265 | -110.64815 | 33918 ft | 446 kts | 248° |
| 2026-04-30 06:28 | 25.06024 | -110.71212 | 33929 ft | 447 kts | 248° |
| 2026-04-30 06:28 | 25.03785 | -110.77592 | 33926 ft | 448 kts | 248° |
| 2026-04-30 06:29 | 25.01526 | -110.84021 | 33936 ft | 449 kts | 248° |
| 2026-04-30 06:29 | 24.99267 | -110.90440 | 33939 ft | 449 kts | 248° |
| 2026-04-30 06:30 | 24.97007 | -110.96851 | 33943 ft | 450 kts | 248° |
| 2026-04-30 06:30 | 24.94741 | -111.03268 | 33950 ft | 450 kts | 248° |
| 2026-04-30 06:31 | 24.92462 | -111.09717 | 33948 ft | 451 kts | 248° |
| 2026-04-30 06:31 | 24.89862 | -111.15972 | 33952 ft | 450 kts | 240° |
| 2026-04-30 06:32 | 24.86789 | -111.21952 | 33954 ft | 450 kts | 240° |
| 2026-04-30 06:32 | 24.83726 | -111.27931 | 33951 ft | 449 kts | 240° |
| 2026-04-30 06:33 | 24.80658 | -111.33949 | 33953 ft | 449 kts | 240° |
| 2026-04-30 06:33 | 24.77620 | -111.39915 | 33951 ft | 449 kts | 240° |
| 2026-04-30 06:34 | 24.74557 | -111.45926 | 33951 ft | 448 kts | 240° |
| 2026-04-30 06:34 | 24.71514 | -111.51891 | 33954 ft | 448 kts | 240° |
| 2026-04-30 06:35 | 24.68457 | -111.57874 | 33952 ft | 448 kts | 240° |
| 2026-04-30 06:35 | 24.65418 | -111.63814 | 33951 ft | 447 kts | 240° |
| 2026-04-30 06:36 | 24.62363 | -111.69777 | 33952 ft | 447 kts | 240° |
| 2026-04-30 06:36 | 24.59323 | -111.75704 | 33954 ft | 446 kts | 240° |
| 2026-04-30 06:37 | 24.56778 | -111.80662 | 33956 ft | 446 kts | 240° |
| 2026-04-30 06:37 | 24.53734 | -111.86582 | 33956 ft | 446 kts | 240° |
| 2026-04-30 06:38 | 24.50674 | -111.92527 | 33959 ft | 445 kts | 240° |
| 2026-04-30 06:38 | 24.47635 | -111.98424 | 33961 ft | 445 kts | 240° |
| 2026-04-30 06:39 | 24.44575 | -112.04354 | 33964 ft | 445 kts | 240° |
| 2026-04-30 06:39 | 24.41535 | -112.10238 | 33964 ft | 445 kts | 240° |
| 2026-04-30 06:40 | 24.38472 | -112.16159 | 33966 ft | 445 kts | 240° |
| 2026-04-30 06:40 | 24.35408 | -112.22075 | 33970 ft | 445 kts | 240° |
| 2026-04-30 06:41 | 24.32359 | -112.27955 | 33966 ft | 446 kts | 240° |
| 2026-04-30 06:41 | 24.29299 | -112.33850 | 33970 ft | 446 kts | 240° |
| 2026-04-30 06:42 | 24.26217 | -112.39778 | 33975 ft | 446 kts | 240° |
| 2026-04-30 06:42 | 24.23149 | -112.45673 | 33978 ft | 447 kts | 240° |
| 2026-04-30 06:43 | 24.20077 | -112.51569 | 33979 ft | 447 kts | 240° |
| 2026-04-30 06:43 | 24.16997 | -112.57472 | 33986 ft | 447 kts | 239° |
| 2026-04-30 06:44 | 24.13901 | -112.63398 | 33983 ft | 447 kts | 239° |
| 2026-04-30 06:44 | 24.10816 | -112.69296 | 33985 ft | 447 kts | 239° |
| 2026-04-30 06:45 | 24.07726 | -112.75197 | 33987 ft | 447 kts | 239° |
| 2026-04-30 06:45 | 24.04614 | -112.81133 | 33989 ft | 447 kts | 239° |
| 2026-04-30 06:46 | 24.01528 | -112.87013 | 33992 ft | 447 kts | 239° |
| 2026-04-30 06:46 | 23.98437 | -112.92893 | 33994 ft | 447 kts | 239° |
| 2026-04-30 06:47 | 23.95326 | -112.98806 | 33993 ft | 447 kts | 239° |
| 2026-04-30 06:47 | 23.92217 | -113.04707 | 33993 ft | 447 kts | 239° |
| 2026-04-30 06:48 | 23.89121 | -113.10576 | 33998 ft | 447 kts | 239° |
| 2026-04-30 06:48 | 23.86026 | -113.16437 | 34002 ft | 446 kts | 239° |
| 2026-04-30 06:49 | 23.82912 | -113.22328 | 34002 ft | 446 kts | 239° |
| 2026-04-30 06:49 | 23.79799 | -113.28208 | 34001 ft | 446 kts | 239° |
| 2026-04-30 06:50 | 23.76704 | -113.34047 | 34007 ft | 446 kts | 239° |
| 2026-04-30 06:50 | 23.73581 | -113.39932 | 34007 ft | 446 kts | 239° |
| 2026-04-30 06:51 | 23.70476 | -113.45777 | 34008 ft | 446 kts | 239° |
| 2026-04-30 06:51 | 23.67367 | -113.51622 | 34009 ft | 446 kts | 239° |
| 2026-04-30 06:52 | 23.64265 | -113.57447 | 34011 ft | 445 kts | 239° |
| 2026-04-30 06:52 | 23.61141 | -113.63307 | 34010 ft | 445 kts | 239° |
| 2026-04-30 06:53 | 23.58032 | -113.69132 | 34013 ft | 445 kts | 239° |
| 2026-04-30 06:53 | 23.54930 | -113.74936 | 34020 ft | 445 kts | 239° |
| 2026-04-30 06:54 | 23.51804 | -113.80780 | 34018 ft | 445 kts | 239° |
| 2026-04-30 06:54 | 23.48696 | -113.86582 | 34022 ft | 444 kts | 239° |
| 2026-04-30 06:55 | 23.45588 | -113.92377 | 34021 ft | 444 kts | 239° |
| 2026-04-30 06:55 | 23.42472 | -113.98181 | 34024 ft | 444 kts | 239° |
| 2026-04-30 06:56 | 23.39354 | -114.03982 | 34021 ft | 444 kts | 239° |
| 2026-04-30 06:56 | 23.36227 | -114.09793 | 34024 ft | 443 kts | 239° |
| 2026-04-30 06:57 | 23.33122 | -114.15557 | 34025 ft | 443 kts | 239° |
| 2026-04-30 06:57 | 23.29992 | -114.21360 | 34024 ft | 443 kts | 239° |
| 2026-04-30 06:58 | 23.26885 | -114.27112 | 34028 ft | 442 kts | 239° |
| 2026-04-30 06:58 | 23.23783 | -114.32851 | 34027 ft | 442 kts | 240° |
| 2026-04-30 06:59 | 23.20666 | -114.38611 | 34026 ft | 441 kts | 240° |
| 2026-04-30 06:59 | 23.17535 | -114.44388 | 34031 ft | 441 kts | 239° |
| 2026-04-30 07:00 | 23.14432 | -114.50108 | 34032 ft | 441 kts | 240° |
| 2026-04-30 07:00 | 23.11307 | -114.55863 | 34035 ft | 441 kts | 240° |
| 2026-04-30 07:01 | 23.08198 | -114.61582 | 34036 ft | 440 kts | 240° |
| 2026-04-30 07:01 | 23.05091 | -114.67290 | 34037 ft | 440 kts | 240° |
| 2026-04-30 07:02 | 23.01976 | -114.73007 | 34033 ft | 440 kts | 240° |
| 2026-04-30 07:02 | 22.98842 | -114.78751 | 34035 ft | 440 kts | 240° |
| 2026-04-30 07:03 | 22.95728 | -114.84453 | 34035 ft | 441 kts | 240° |
| 2026-04-30 07:03 | 22.92590 | -114.90192 | 34037 ft | 441 kts | 240° |
| 2026-04-30 07:04 | 22.89473 | -114.95887 | 34037 ft | 441 kts | 240° |
| 2026-04-30 07:04 | 22.86336 | -115.01613 | 34037 ft | 441 kts | 240° |
| 2026-04-30 07:05 | 22.81639 | -115.10172 | 34047 ft | 441 kts | 240° |
| 2026-04-30 07:05 | 22.78493 | -115.15898 | 34045 ft | 441 kts | 239° |
| 2026-04-30 07:06 | 22.75354 | -115.21603 | 34043 ft | 442 kts | 239° |
| 2026-04-30 07:06 | 22.72214 | -115.27305 | 34042 ft | 442 kts | 239° |
| 2026-04-30 07:07 | 22.69045 | -115.33053 | 34045 ft | 443 kts | 239° |
| 2026-04-30 07:07 | 22.65891 | -115.38768 | 34044 ft | 443 kts | 239° |
| 2026-04-30 07:08 | 22.62741 | -115.44469 | 34042 ft | 443 kts | 239° |
| 2026-04-30 07:08 | 22.59575 | -115.50193 | 34047 ft | 444 kts | 239° |
| 2026-04-30 07:09 | 22.56394 | -115.55938 | 34044 ft | 444 kts | 239° |
| 2026-04-30 07:09 | 22.53222 | -115.61658 | 34045 ft | 445 kts | 239° |
| 2026-04-30 07:10 | 22.50032 | -115.67406 | 34043 ft | 445 kts | 239° |
| 2026-04-30 07:10 | 22.46840 | -115.73152 | 34047 ft | 445 kts | 239° |
| 2026-04-30 07:11 | 22.43659 | -115.78871 | 34046 ft | 445 kts | 239° |
| 2026-04-30 07:11 | 22.40476 | -115.84587 | 34046 ft | 445 kts | 239° |
| 2026-04-30 07:12 | 22.37282 | -115.90319 | 34050 ft | 446 kts | 239° |
| 2026-04-30 07:12 | 22.34067 | -115.96079 | 34050 ft | 446 kts | 239° |
| 2026-04-30 07:13 | 22.30860 | -116.01820 | 34049 ft | 446 kts | 239° |
| 2026-04-30 07:13 | 22.27667 | -116.07530 | 34052 ft | 446 kts | 239° |
| 2026-04-30 07:14 | 22.24449 | -116.13278 | 34048 ft | 446 kts | 239° |
| 2026-04-30 07:14 | 22.21245 | -116.18994 | 34048 ft | 446 kts | 239° |
| 2026-04-30 07:15 | 22.18041 | -116.24705 | 34045 ft | 446 kts | 239° |
| 2026-04-30 07:15 | 22.14832 | -116.30418 | 34045 ft | 446 kts | 239° |
| 2026-04-30 07:16 | 22.11600 | -116.36166 | 34048 ft | 446 kts | 239° |
| 2026-04-30 07:16 | 22.08376 | -116.41896 | 34045 ft | 446 kts | 239° |
| 2026-04-30 07:17 | 22.05160 | -116.47603 | 34047 ft | 446 kts | 239° |
| 2026-04-30 07:18 | 22.00336 | -116.56152 | 34050 ft | 446 kts | 238° |
| 2026-04-30 07:18 | 21.97112 | -116.61858 | 34052 ft | 446 kts | 238° |
| 2026-04-30 07:19 | 21.93877 | -116.67578 | 34054 ft | 446 kts | 238° |
| 2026-04-30 07:19 | 21.90652 | -116.73274 | 34053 ft | 446 kts | 238° |
| 2026-04-30 07:20 | 21.87431 | -116.78956 | 34051 ft | 446 kts | 238° |
| 2026-04-30 07:20 | 21.84191 | -116.84667 | 34051 ft | 445 kts | 238° |
| 2026-04-30 07:21 | 21.80971 | -116.90337 | 34051 ft | 445 kts | 238° |
| 2026-04-30 07:21 | 21.77731 | -116.96034 | 34053 ft | 445 kts | 238° |
| 2026-04-30 07:22 | 21.72884 | -117.04549 | 34056 ft | 445 kts | 238° |
| 2026-04-30 07:22 | 21.69652 | -117.10217 | 34054 ft | 445 kts | 238° |
| 2026-04-30 07:23 | 21.66412 | -117.15894 | 34052 ft | 445 kts | 238° |
| 2026-04-30 07:23 | 21.63179 | -117.21554 | 34051 ft | 445 kts | 238° |
| 2026-04-30 07:24 | 21.59937 | -117.27223 | 34053 ft | 445 kts | 238° |
| 2026-04-30 07:24 | 21.57235 | -117.31944 | 34054 ft | 446 kts | 238° |
| 2026-04-30 07:25 | 21.53444 | -117.38559 | 34052 ft | 446 kts | 238° |
| 2026-04-30 07:25 | 21.50730 | -117.43292 | 34052 ft | 446 kts | 238° |
| 2026-04-30 07:26 | 21.47470 | -117.48970 | 34052 ft | 445 kts | 238° |
| 2026-04-30 07:26 | 21.44214 | -117.54634 | 34049 ft | 445 kts | 238° |
| 2026-04-30 07:27 | 21.40966 | -117.60280 | 34051 ft | 445 kts | 238° |
| 2026-04-30 07:27 | 21.37707 | -117.65939 | 34051 ft | 445 kts | 238° |
| 2026-04-30 07:28 | 21.34470 | -117.71554 | 34049 ft | 445 kts | 238° |
| 2026-04-30 07:28 | 21.31209 | -117.77204 | 34048 ft | 444 kts | 238° |
| 2026-04-30 07:29 | 21.27964 | -117.82821 | 34051 ft | 444 kts | 238° |
| 2026-04-30 07:29 | 21.24702 | -117.88462 | 34048 ft | 444 kts | 238° |
| 2026-04-30 07:30 | 21.19823 | -117.96889 | 34047 ft | 444 kts | 238° |
| 2026-04-30 07:31 | 21.16572 | -118.02496 | 34051 ft | 444 kts | 238° |
| 2026-04-30 07:31 | 21.13296 | -118.08142 | 34050 ft | 444 kts | 238° |
| 2026-04-30 07:32 | 21.10046 | -118.13736 | 34050 ft | 444 kts | 238° |
| 2026-04-30 07:32 | 21.06775 | -118.19361 | 34050 ft | 444 kts | 238° |
| 2026-04-30 07:33 | 21.03517 | -118.24957 | 34047 ft | 444 kts | 238° |
| 2026-04-30 07:33 | 21.00245 | -118.30573 | 34050 ft | 444 kts | 238° |
| 2026-04-30 07:34 | 20.96988 | -118.36158 | 34050 ft | 444 kts | 238° |
| 2026-04-30 07:34 | 20.93733 | -118.41732 | 34047 ft | 443 kts | 238° |
| 2026-04-30 07:35 | 20.90451 | -118.47348 | 34049 ft | 443 kts | 238° |
| 2026-04-30 07:35 | 20.87195 | -118.52915 | 34047 ft | 443 kts | 238° |
| 2026-04-30 07:36 | 20.83929 | -118.58492 | 34046 ft | 443 kts | 238° |
| 2026-04-30 07:36 | 20.80640 | -118.64103 | 34045 ft | 443 kts | 238° |
| 2026-04-30 07:37 | 20.77372 | -118.69673 | 34045 ft | 443 kts | 238° |
| 2026-04-30 07:37 | 20.74096 | -118.75251 | 34044 ft | 443 kts | 238° |
| 2026-04-30 07:38 | 20.70810 | -118.80840 | 34047 ft | 444 kts | 238° |
| 2026-04-30 07:38 | 20.67540 | -118.86398 | 34044 ft | 444 kts | 238° |
| 2026-04-30 07:39 | 20.64256 | -118.91973 | 34044 ft | 444 kts | 237° |
| 2026-04-30 07:39 | 20.60954 | -118.97574 | 34043 ft | 444 kts | 238° |
| 2026-04-30 07:40 | 20.57662 | -119.03152 | 34045 ft | 444 kts | 237° |
| 2026-04-30 07:40 | 20.54381 | -119.08705 | 34041 ft | 444 kts | 237° |
| 2026-04-30 07:41 | 20.51074 | -119.14297 | 34045 ft | 444 kts | 237° |
| 2026-04-30 07:41 | 20.47773 | -119.19874 | 34042 ft | 444 kts | 237° |
| 2026-04-30 07:42 | 20.44488 | -119.25419 | 34043 ft | 444 kts | 237° |
| 2026-04-30 07:42 | 20.41164 | -119.31024 | 34048 ft | 445 kts | 237° |
| 2026-04-30 07:43 | 20.37872 | -119.36570 | 34043 ft | 445 kts | 237° |
| 2026-04-30 07:43 | 20.34550 | -119.42161 | 34043 ft | 445 kts | 237° |
| 2026-04-30 07:44 | 20.31248 | -119.47713 | 34045 ft | 445 kts | 237° |
| 2026-04-30 07:44 | 20.27937 | -119.53274 | 34046 ft | 445 kts | 237° |
| 2026-04-30 07:45 | 20.24602 | -119.58871 | 34037 ft | 446 kts | 237° |
| 2026-04-30 07:45 | 20.21283 | -119.64435 | 34038 ft | 446 kts | 237° |
| 2026-04-30 07:46 | 20.17948 | -119.70021 | 34047 ft | 446 kts | 237° |
| 2026-04-30 07:46 | 20.14629 | -119.75576 | 34035 ft | 446 kts | 237° |
| 2026-04-30 07:47 | 20.11303 | -119.81135 | 34036 ft | 446 kts | 237° |
| 2026-04-30 07:47 | 20.07965 | -119.86711 | 34056 ft | 446 kts | 237° |
| 2026-04-30 07:48 | 20.04622 | -119.92291 | 34033 ft | 447 kts | 237° |
| 2026-04-30 07:48 | 20.01294 | -119.97842 | 34036 ft | 447 kts | 237° |
| 2026-04-30 07:49 | 19.97988 | -120.03472 | 34042 ft | 447 kts | 239° |
| 2026-04-30 07:49 | 19.94851 | -120.09149 | 34043 ft | 448 kts | 239° |
| 2026-04-30 07:50 | 19.91702 | -120.14885 | 34046 ft | 448 kts | 239° |
| 2026-04-30 07:50 | 19.88550 | -120.20583 | 34030 ft | 449 kts | 239° |
| 2026-04-30 07:51 | 19.85382 | -120.26278 | 34045 ft | 449 kts | 239° |
| 2026-04-30 07:51 | 19.82184 | -120.32011 | 34038 ft | 450 kts | 239° |
| 2026-04-30 07:52 | 19.79002 | -120.37710 | 34029 ft | 450 kts | 239° |
| 2026-04-30 07:52 | 19.75800 | -120.43440 | 34026 ft | 451 kts | 239° |
| 2026-04-30 07:53 | 19.72603 | -120.49157 | 34033 ft | 451 kts | 239° |
| 2026-04-30 07:53 | 19.69403 | -120.54873 | 34044 ft | 451 kts | 239° |
| 2026-04-30 07:54 | 19.66203 | -120.60585 | 34031 ft | 452 kts | 239° |
| 2026-04-30 07:54 | 19.62976 | -120.66338 | 34041 ft | 452 kts | 239° |
| 2026-04-30 07:55 | 19.59764 | -120.72060 | 34043 ft | 452 kts | 239° |
| 2026-04-30 07:55 | 19.56550 | -120.77778 | 34021 ft | 453 kts | 239° |
| 2026-04-30 07:56 | 19.53307 | -120.83544 | 34034 ft | 453 kts | 239° |
| 2026-04-30 07:56 | 19.50090 | -120.89259 | 34036 ft | 454 kts | 239° |
| 2026-04-30 07:57 | 19.46859 | -120.94992 | 34034 ft | 454 kts | 239° |
| 2026-04-30 07:57 | 19.43602 | -121.00765 | 34033 ft | 454 kts | 239° |
| 2026-04-30 07:58 | 19.40371 | -121.06487 | 34038 ft | 455 kts | 239° |
| 2026-04-30 07:58 | 19.37114 | -121.12249 | 34028 ft | 455 kts | 239° |
| 2026-04-30 07:59 | 19.33867 | -121.17988 | 34029 ft | 455 kts | 239° |
| 2026-04-30 07:59 | 19.30599 | -121.23760 | 34035 ft | 456 kts | 239° |
| 2026-04-30 08:00 | 19.25703 | -121.32396 | 34036 ft | 456 kts | 239° |
| 2026-04-30 08:00 | 19.22452 | -121.38123 | 34035 ft | 457 kts | 239° |
| 2026-04-30 08:01 | 19.19163 | -121.43912 | 34037 ft | 457 kts | 239° |
| 2026-04-30 08:01 | 19.15894 | -121.49660 | 34038 ft | 458 kts | 239° |
| 2026-04-30 08:02 | 19.10957 | -121.58331 | 34038 ft | 458 kts | 238° |
| 2026-04-30 08:03 | 19.04368 | -121.69884 | 34043 ft | 459 kts | 238° |
| 2026-04-30 08:04 | 19.01071 | -121.75657 | 34038 ft | 460 kts | 238° |
| 2026-04-30 08:04 | 18.97772 | -121.81428 | 34031 ft | 461 kts | 238° |
| 2026-04-30 08:05 | 18.94449 | -121.87237 | 34045 ft | 461 kts | 238° |
| 2026-04-30 08:05 | 18.91144 | -121.93006 | 34048 ft | 462 kts | 238° |
| 2026-04-30 08:06 | 18.87799 | -121.98842 | 34045 ft | 462 kts | 238° |
| 2026-04-30 08:06 | 18.84480 | -122.04626 | 34038 ft | 463 kts | 238° |
| 2026-04-30 08:07 | 18.81145 | -122.10432 | 34040 ft | 463 kts | 238° |
| 2026-04-30 08:07 | 18.77789 | -122.16269 | 34042 ft | 464 kts | 238° |
| 2026-04-30 08:08 | 18.74457 | -122.22060 | 34043 ft | 464 kts | 238° |
| 2026-04-30 08:08 | 18.71102 | -122.27885 | 34040 ft | 464 kts | 238° |
| 2026-04-30 08:09 | 18.67765 | -122.33674 | 34049 ft | 463 kts | 238° |
| 2026-04-30 08:09 | 18.64409 | -122.39491 | 34046 ft | 463 kts | 238° |
| 2026-04-30 08:10 | 18.61077 | -122.45259 | 34041 ft | 462 kts | 238° |
| 2026-04-30 08:10 | 18.57725 | -122.51057 | 34044 ft | 462 kts | 238° |
| 2026-04-30 08:11 | 18.54397 | -122.56809 | 34040 ft | 461 kts | 238° |
| 2026-04-30 08:11 | 18.51039 | -122.62608 | 34047 ft | 461 kts | 238° |
| 2026-04-30 08:12 | 18.47710 | -122.68350 | 34041 ft | 461 kts | 238° |
| 2026-04-30 08:12 | 18.44916 | -122.73166 | 34050 ft | 462 kts | 238° |
| 2026-04-30 08:13 | 18.41558 | -122.78949 | 34055 ft | 462 kts | 238° |
| 2026-04-30 08:13 | 18.38213 | -122.84703 | 34047 ft | 463 kts | 238° |
| 2026-04-30 08:14 | 18.34836 | -122.90509 | 34050 ft | 463 kts | 238° |
| 2026-04-30 08:14 | 18.31481 | -122.96272 | 34051 ft | 464 kts | 238° |
| 2026-04-30 08:15 | 18.28100 | -123.02074 | 34044 ft | 464 kts | 238° |
| 2026-04-30 08:15 | 18.24738 | -123.07837 | 34050 ft | 465 kts | 238° |
| 2026-04-30 08:16 | 18.21340 | -123.13657 | 34044 ft | 465 kts | 238° |
| 2026-04-30 08:16 | 18.17972 | -123.19421 | 34047 ft | 465 kts | 238° |
| 2026-04-30 08:17 | 18.14593 | -123.25198 | 34056 ft | 465 kts | 238° |
| 2026-04-30 08:17 | 18.11194 | -123.31004 | 34051 ft | 465 kts | 238° |
| 2026-04-30 08:18 | 18.07797 | -123.36803 | 34051 ft | 465 kts | 238° |
| 2026-04-30 08:18 | 18.04421 | -123.42559 | 34048 ft | 464 kts | 238° |
| 2026-04-30 08:19 | 18.01038 | -123.48322 | 34048 ft | 464 kts | 238° |
| 2026-04-30 08:19 | 17.97634 | -123.54117 | 34049 ft | 464 kts | 238° |
| 2026-04-30 08:20 | 17.94259 | -123.59856 | 34047 ft | 464 kts | 238° |
| 2026-04-30 08:20 | 17.90859 | -123.65632 | 34051 ft | 464 kts | 238° |
| 2026-04-30 08:21 | 17.87478 | -123.71373 | 34047 ft | 464 kts | 238° |
| 2026-04-30 08:21 | 17.84071 | -123.77151 | 34049 ft | 464 kts | 238° |
| 2026-04-30 08:22 | 17.80690 | -123.82881 | 34049 ft | 464 kts | 238° |
| 2026-04-30 08:22 | 17.77303 | -123.88616 | 34045 ft | 464 kts | 238° |
| 2026-04-30 08:23 | 17.73895 | -123.94380 | 34047 ft | 463 kts | 238° |
| 2026-04-30 08:23 | 17.70509 | -124.00104 | 34048 ft | 463 kts | 238° |
| 2026-04-30 08:24 | 17.67101 | -124.05860 | 34041 ft | 463 kts | 238° |
| 2026-04-30 08:24 | 17.63707 | -124.11586 | 34046 ft | 463 kts | 238° |
| 2026-04-30 08:25 | 17.60315 | -124.17304 | 34048 ft | 463 kts | 238° |
| 2026-04-30 08:25 | 17.56894 | -124.23066 | 34046 ft | 464 kts | 238° |
| 2026-04-30 08:26 | 17.53497 | -124.28784 | 34045 ft | 464 kts | 238° |
| 2026-04-30 08:26 | 17.50075 | -124.34537 | 34044 ft | 464 kts | 238° |
| 2026-04-30 08:27 | 17.46663 | -124.40269 | 34048 ft | 464 kts | 238° |
| 2026-04-30 08:27 | 17.43236 | -124.46023 | 34044 ft | 465 kts | 238° |
| 2026-04-30 08:28 | 17.39826 | -124.51742 | 34043 ft | 465 kts | 238° |
| 2026-04-30 08:28 | 17.36405 | -124.57475 | 34043 ft | 465 kts | 238° |
| 2026-04-30 08:29 | 17.32984 | -124.63201 | 34044 ft | 465 kts | 238° |
| 2026-04-30 08:29 | 17.29560 | -124.68930 | 34043 ft | 465 kts | 238° |
| 2026-04-30 08:30 | 17.26120 | -124.74680 | 34044 ft | 464 kts | 238° |
| 2026-04-30 08:30 | 17.22686 | -124.80415 | 34044 ft | 464 kts | 238° |
| 2026-04-30 08:31 | 17.19269 | -124.86116 | 34043 ft | 464 kts | 238° |
| 2026-04-30 08:31 | 17.15852 | -124.91813 | 34042 ft | 463 kts | 238° |
| 2026-04-30 08:32 | 17.12415 | -124.97538 | 34037 ft | 463 kts | 238° |
| 2026-04-30 08:32 | 17.08999 | -125.03224 | 34036 ft | 462 kts | 238° |
| 2026-04-30 08:33 | 17.05588 | -125.08897 | 34038 ft | 462 kts | 238° |
| 2026-04-30 08:33 | 17.02157 | -125.14599 | 34041 ft | 462 kts | 238° |
| 2026-04-30 08:34 | 16.98747 | -125.20260 | 34038 ft | 462 kts | 238° |
| 2026-04-30 08:34 | 16.95329 | -125.25931 | 34038 ft | 462 kts | 238° |
| 2026-04-30 08:35 | 16.91891 | -125.31630 | 34039 ft | 462 kts | 238° |
| 2026-04-30 08:35 | 16.88472 | -125.37292 | 34037 ft | 462 kts | 238° |
| 2026-04-30 08:36 | 16.85048 | -125.42959 | 34039 ft | 462 kts | 238° |
| 2026-04-30 08:36 | 16.81610 | -125.48643 | 34034 ft | 462 kts | 238° |
| 2026-04-30 08:37 | 16.78190 | -125.54295 | 34036 ft | 462 kts | 238° |
| 2026-04-30 08:37 | 16.74749 | -125.59975 | 34035 ft | 462 kts | 238° |
| 2026-04-30 08:38 | 16.71339 | -125.65599 | 34033 ft | 462 kts | 238° |
| 2026-04-30 08:38 | 16.67885 | -125.71292 | 34032 ft | 462 kts | 238° |
| 2026-04-30 08:39 | 16.64457 | -125.76938 | 34030 ft | 463 kts | 238° |
| 2026-04-30 08:39 | 16.61009 | -125.82611 | 34030 ft | 463 kts | 238° |
| 2026-04-30 08:40 | 16.57556 | -125.88289 | 34030 ft | 463 kts | 238° |
| 2026-04-30 08:40 | 16.54103 | -125.93961 | 34029 ft | 464 kts | 238° |
| 2026-04-30 08:41 | 16.50660 | -125.99614 | 34030 ft | 464 kts | 238° |
| 2026-04-30 08:41 | 16.47183 | -126.05316 | 34028 ft | 464 kts | 238° |
| 2026-04-30 08:42 | 16.43738 | -126.10963 | 34032 ft | 465 kts | 238° |
| 2026-04-30 08:42 | 16.40255 | -126.16667 | 34028 ft | 465 kts | 238° |
| 2026-04-30 08:43 | 16.36791 | -126.22334 | 34028 ft | 465 kts | 238° |
| 2026-04-30 08:43 | 16.33309 | -126.28029 | 34028 ft | 465 kts | 238° |
| 2026-04-30 08:44 | 16.29845 | -126.33688 | 34029 ft | 465 kts | 238° |
| 2026-04-30 08:44 | 16.26358 | -126.39380 | 34026 ft | 465 kts | 238° |
| 2026-04-30 08:45 | 16.22894 | -126.45029 | 34025 ft | 465 kts | 238° |
| 2026-04-30 08:45 | 16.19429 | -126.50678 | 34024 ft | 465 kts | 238° |
| 2026-04-30 08:46 | 16.15936 | -126.56366 | 34023 ft | 464 kts | 238° |
| 2026-04-30 08:46 | 16.12474 | -126.62000 | 34023 ft | 464 kts | 238° |
| 2026-04-30 08:47 | 16.08986 | -126.67672 | 34021 ft | 464 kts | 238° |
| 2026-04-30 08:47 | 16.05523 | -126.73299 | 34021 ft | 464 kts | 238° |
| 2026-04-30 08:48 | 16.02032 | -126.78966 | 34023 ft | 463 kts | 238° |
| 2026-04-30 08:48 | 15.98568 | -126.84586 | 34019 ft | 463 kts | 238° |
| 2026-04-30 08:49 | 15.95081 | -126.90239 | 34021 ft | 463 kts | 238° |
| 2026-04-30 08:49 | 15.91619 | -126.95845 | 34021 ft | 463 kts | 238° |
| 2026-04-30 08:50 | 15.88133 | -127.01488 | 34019 ft | 462 kts | 238° |
| 2026-04-30 08:50 | 15.84670 | -127.07089 | 34021 ft | 462 kts | 238° |
| 2026-04-30 08:51 | 15.81201 | -127.12696 | 34018 ft | 462 kts | 238° |
| 2026-04-30 08:51 | 15.77712 | -127.18330 | 34018 ft | 462 kts | 238° |
| 2026-04-30 08:52 | 15.74237 | -127.23937 | 34019 ft | 462 kts | 238° |
| 2026-04-30 08:52 | 15.70766 | -127.29533 | 34016 ft | 462 kts | 238° |
| 2026-04-30 08:53 | 15.67292 | -127.35131 | 34018 ft | 463 kts | 238° |
| 2026-04-30 08:53 | 15.63789 | -127.40770 | 34016 ft | 463 kts | 238° |
| 2026-04-30 08:54 | 15.60305 | -127.46376 | 34012 ft | 463 kts | 238° |
| 2026-04-30 08:54 | 15.56821 | -127.51977 | 34015 ft | 463 kts | 238° |
| 2026-04-30 08:55 | 15.53327 | -127.57589 | 34012 ft | 464 kts | 238° |
| 2026-04-30 08:55 | 15.49821 | -127.63217 | 34011 ft | 464 kts | 238° |
| 2026-04-30 08:56 | 15.46336 | -127.68807 | 34010 ft | 464 kts | 238° |
| 2026-04-30 08:56 | 15.42824 | -127.74436 | 34008 ft | 464 kts | 238° |
| 2026-04-30 08:57 | 15.39323 | -127.80044 | 34007 ft | 464 kts | 238° |
| 2026-04-30 08:57 | 15.35823 | -127.85644 | 34008 ft | 464 kts | 238° |
| 2026-04-30 08:58 | 15.32295 | -127.91287 | 34007 ft | 465 kts | 238° |
| 2026-04-30 08:58 | 15.28792 | -127.96886 | 34005 ft | 465 kts | 238° |
| 2026-04-30 08:59 | 15.25280 | -128.02494 | 34004 ft | 466 kts | 238° |
| 2026-04-30 08:59 | 15.21740 | -128.08143 | 34005 ft | 466 kts | 238° |
| 2026-04-30 09:00 | 15.18221 | -128.13754 | 33999 ft | 467 kts | 238° |
| 2026-04-30 09:00 | 15.14677 | -128.19400 | 33998 ft | 467 kts | 238° |
| 2026-04-30 09:01 | 15.11146 | -128.25023 | 34002 ft | 467 kts | 238° |
| 2026-04-30 09:01 | 15.08188 | -128.29729 | 34000 ft | 468 kts | 238° |
| 2026-04-30 09:02 | 15.02864 | -128.38195 | 34002 ft | 468 kts | 238° |
| 2026-04-30 09:02 | 14.99325 | -128.43815 | 33996 ft | 468 kts | 238° |
| 2026-04-30 09:03 | 14.95759 | -128.49476 | 33999 ft | 469 kts | 238° |
| 2026-04-30 09:03 | 14.92207 | -128.55109 | 33994 ft | 469 kts | 238° |
| 2026-04-30 09:04 | 14.88635 | -128.60772 | 33996 ft | 469 kts | 238° |
| 2026-04-30 09:04 | 14.85078 | -128.66405 | 33999 ft | 469 kts | 238° |
| 2026-04-30 09:05 | 14.81500 | -128.72068 | 33998 ft | 469 kts | 238° |
| 2026-04-30 09:05 | 14.77941 | -128.77698 | 33997 ft | 470 kts | 238° |
| 2026-04-30 09:06 | 14.74356 | -128.83363 | 33991 ft | 470 kts | 238° |
| 2026-04-30 09:06 | 14.70789 | -128.88996 | 33989 ft | 470 kts | 238° |
| 2026-04-30 09:07 | 14.67204 | -128.94654 | 33993 ft | 470 kts | 238° |
| 2026-04-30 09:07 | 14.63608 | -129.00326 | 33994 ft | 471 kts | 238° |
| 2026-04-30 09:08 | 14.60031 | -129.05963 | 33995 ft | 471 kts | 238° |
| 2026-04-30 09:08 | 14.56450 | -129.11602 | 33988 ft | 471 kts | 238° |
| 2026-04-30 09:09 | 14.52850 | -129.17269 | 33989 ft | 470 kts | 238° |
| 2026-04-30 09:09 | 14.49265 | -129.22906 | 33987 ft | 470 kts | 238° |
| 2026-04-30 09:10 | 14.45678 | -129.28543 | 33991 ft | 470 kts | 238° |
| 2026-04-30 09:10 | 14.42086 | -129.34184 | 33988 ft | 470 kts | 238° |
| 2026-04-30 09:11 | 14.38507 | -129.39801 | 33991 ft | 470 kts | 238° |
| 2026-04-30 09:11 | 14.34908 | -129.45446 | 33989 ft | 469 kts | 238° |
| 2026-04-30 09:12 | 14.31327 | -129.51058 | 33985 ft | 469 kts | 238° |
| 2026-04-30 09:12 | 14.27746 | -129.56666 | 33986 ft | 469 kts | 238° |
| 2026-04-30 09:13 | 14.24137 | -129.62315 | 33986 ft | 470 kts | 238° |
| 2026-04-30 09:13 | 14.20554 | -129.67919 | 33988 ft | 470 kts | 238° |
| 2026-04-30 09:14 | 14.16964 | -129.73530 | 33985 ft | 470 kts | 238° |
| 2026-04-30 09:14 | 14.13347 | -129.79180 | 33981 ft | 471 kts | 238° |
| 2026-04-30 09:15 | 14.09751 | -129.84793 | 33985 ft | 471 kts | 238° |
| 2026-04-30 09:15 | 14.06128 | -129.90446 | 33983 ft | 471 kts | 238° |
| 2026-04-30 09:16 | 14.02534 | -129.96050 | 33984 ft | 471 kts | 238° |
| 2026-04-30 09:16 | 13.98968 | -130.01733 | 33979 ft | 471 kts | 240° |
| 2026-04-30 09:17 | 13.95653 | -130.07528 | 33978 ft | 471 kts | 241° |
| 2026-04-30 09:17 | 13.92347 | -130.13384 | 33979 ft | 471 kts | 241° |
| 2026-04-30 09:18 | 13.89053 | -130.19192 | 33978 ft | 471 kts | 240° |
| 2026-04-30 09:18 | 13.85727 | -130.25026 | 33977 ft | 471 kts | 240° |
| 2026-04-30 09:19 | 13.82419 | -130.30816 | 33977 ft | 471 kts | 240° |
| 2026-04-30 09:19 | 13.79076 | -130.36663 | 33975 ft | 471 kts | 240° |
| 2026-04-30 09:20 | 13.75754 | -130.42469 | 33978 ft | 471 kts | 240° |
| 2026-04-30 09:20 | 13.72436 | -130.48266 | 33973 ft | 471 kts | 240° |
| 2026-04-30 09:21 | 13.69116 | -130.54062 | 33972 ft | 471 kts | 240° |
| 2026-04-30 09:21 | 13.65778 | -130.59886 | 33974 ft | 471 kts | 240° |
| 2026-04-30 09:22 | 13.62459 | -130.65672 | 33977 ft | 471 kts | 240° |
| 2026-04-30 09:22 | 13.59135 | -130.71463 | 33976 ft | 470 kts | 240° |
| 2026-04-30 09:23 | 13.55820 | -130.77235 | 33970 ft | 470 kts | 240° |
| 2026-04-30 09:23 | 13.52481 | -130.83044 | 33969 ft | 470 kts | 240° |
| 2026-04-30 09:24 | 13.49165 | -130.88811 | 33970 ft | 470 kts | 240° |
| 2026-04-30 09:24 | 13.45844 | -130.94581 | 33971 ft | 471 kts | 240° |
| 2026-04-30 09:25 | 13.42500 | -131.00387 | 33969 ft | 471 kts | 240° |
| 2026-04-30 09:25 | 13.39169 | -131.06167 | 33967 ft | 471 kts | 240° |
| 2026-04-30 09:26 | 13.35817 | -131.11980 | 33967 ft | 472 kts | 240° |
| 2026-04-30 09:26 | 13.32487 | -131.17750 | 33967 ft | 472 kts | 240° |
| 2026-04-30 09:27 | 13.29126 | -131.23570 | 33964 ft | 472 kts | 240° |
| 2026-04-30 09:27 | 13.25776 | -131.29367 | 33965 ft | 473 kts | 240° |
| 2026-04-30 09:28 | 13.22430 | -131.35154 | 33965 ft | 473 kts | 240° |
| 2026-04-30 09:28 | 13.19058 | -131.40981 | 33966 ft | 473 kts | 240° |
| 2026-04-30 09:29 | 13.15715 | -131.46755 | 33963 ft | 473 kts | 240° |
| 2026-04-30 09:29 | 13.12343 | -131.52574 | 33963 ft | 473 kts | 240° |
| 2026-04-30 09:30 | 13.08988 | -131.58362 | 33961 ft | 473 kts | 240° |
| 2026-04-30 09:30 | 13.05609 | -131.64184 | 33962 ft | 473 kts | 240° |
| 2026-04-30 09:31 | 13.02256 | -131.69962 | 33959 ft | 474 kts | 240° |
| 2026-04-30 09:31 | 12.98880 | -131.75773 | 33957 ft | 474 kts | 240° |
| 2026-04-30 09:32 | 12.95493 | -131.81598 | 33957 ft | 474 kts | 240° |
| 2026-04-30 09:32 | 12.92132 | -131.87377 | 33955 ft | 474 kts | 240° |
| 2026-04-30 09:33 | 12.88739 | -131.93206 | 33958 ft | 474 kts | 240° |
| 2026-04-30 09:33 | 12.85362 | -131.99005 | 33958 ft | 474 kts | 239° |
| 2026-04-30 09:34 | 12.81979 | -132.04809 | 33955 ft | 475 kts | 239° |
| 2026-04-30 09:34 | 12.78603 | -132.10597 | 33958 ft | 475 kts | 239° |
| 2026-04-30 09:35 | 12.75202 | -132.16426 | 33956 ft | 475 kts | 239° |
| 2026-04-30 09:35 | 12.71817 | -132.22223 | 33955 ft | 475 kts | 239° |
| 2026-04-30 09:36 | 12.68418 | -132.28040 | 33954 ft | 476 kts | 239° |
| 2026-04-30 09:36 | 12.65025 | -132.33843 | 33953 ft | 476 kts | 239° |
| 2026-04-30 09:37 | 12.61621 | -132.39662 | 33954 ft | 476 kts | 239° |
| 2026-04-30 09:37 | 12.58209 | -132.45489 | 33951 ft | 476 kts | 239° |
| 2026-04-30 09:38 | 12.54817 | -132.51280 | 33951 ft | 476 kts | 239° |
| 2026-04-30 09:38 | 12.51412 | -132.57089 | 33948 ft | 477 kts | 239° |
| 2026-04-30 09:39 | 12.47988 | -132.62926 | 33954 ft | 477 kts | 239° |
| 2026-04-30 09:39 | 12.44589 | -132.68718 | 33953 ft | 478 kts | 239° |
| 2026-04-30 09:40 | 12.41161 | -132.74555 | 33947 ft | 478 kts | 239° |
| 2026-04-30 09:40 | 12.37743 | -132.80371 | 33950 ft | 478 kts | 239° |
| 2026-04-30 09:41 | 12.34314 | -132.86202 | 33946 ft | 478 kts | 239° |
| 2026-04-30 09:41 | 12.30884 | -132.92032 | 33948 ft | 478 kts | 239° |
| 2026-04-30 09:42 | 12.27451 | -132.97863 | 33946 ft | 477 kts | 239° |
| 2026-04-30 09:42 | 12.24040 | -133.03653 | 33947 ft | 476 kts | 239° |
| 2026-04-30 09:43 | 12.20633 | -133.09433 | 33943 ft | 476 kts | 239° |
| 2026-04-30 09:43 | 12.17204 | -133.15246 | 33943 ft | 475 kts | 239° |
| 2026-04-30 09:44 | 12.13802 | -133.21011 | 33940 ft | 475 kts | 239° |
| 2026-04-30 09:44 | 12.10396 | -133.26779 | 33944 ft | 475 kts | 239° |
| 2026-04-30 09:45 | 12.06967 | -133.32581 | 33938 ft | 475 kts | 239° |
| 2026-04-30 09:45 | 12.03546 | -133.38368 | 33939 ft | 476 kts | 239° |
| 2026-04-30 09:46 | 12.00125 | -133.44150 | 33944 ft | 477 kts | 240° |
| 2026-04-30 09:46 | 11.97276 | -133.48963 | 33940 ft | 477 kts | 240° |
| 2026-04-30 09:47 | 11.93262 | -133.55741 | 33940 ft | 478 kts | 240° |
| 2026-04-30 09:47 | 11.90392 | -133.60584 | 33938 ft | 478 kts | 239° |
| 2026-04-30 09:48 | 11.86943 | -133.66398 | 33938 ft | 478 kts | 239° |
| 2026-04-30 09:48 | 11.83515 | -133.72175 | 33938 ft | 478 kts | 239° |
| 2026-04-30 09:49 | 11.80081 | -133.77960 | 33938 ft | 478 kts | 239° |
| 2026-04-30 09:49 | 11.76614 | -133.83796 | 33933 ft | 478 kts | 239° |
| 2026-04-30 09:50 | 11.73180 | -133.89574 | 33938 ft | 478 kts | 239° |
| 2026-04-30 09:50 | 11.69744 | -133.95351 | 33933 ft | 478 kts | 239° |
| 2026-04-30 09:51 | 11.66282 | -134.01169 | 33934 ft | 478 kts | 239° |
| 2026-04-30 09:51 | 11.62843 | -134.06944 | 33931 ft | 478 kts | 240° |
| 2026-04-30 09:52 | 11.59373 | -134.12768 | 33933 ft | 479 kts | 240° |
| 2026-04-30 09:52 | 11.55925 | -134.18552 | 33928 ft | 479 kts | 240° |
| 2026-04-30 09:53 | 11.52470 | -134.24345 | 33932 ft | 479 kts | 240° |
| 2026-04-30 09:53 | 11.48994 | -134.30170 | 33931 ft | 479 kts | 239° |
| 2026-04-30 09:54 | 11.45539 | -134.35955 | 33931 ft | 480 kts | 239° |
| 2026-04-30 09:54 | 11.42073 | -134.41756 | 33926 ft | 480 kts | 239° |
| 2026-04-30 09:55 | 11.38582 | -134.47596 | 33927 ft | 480 kts | 239° |
| 2026-04-30 09:55 | 11.35120 | -134.53382 | 33924 ft | 481 kts | 239° |
| 2026-04-30 09:56 | 11.31630 | -134.59213 | 33925 ft | 481 kts | 239° |
| 2026-04-30 09:56 | 11.28139 | -134.65043 | 33923 ft | 481 kts | 239° |
| 2026-04-30 09:57 | 11.24661 | -134.70847 | 33925 ft | 481 kts | 239° |
| 2026-04-30 09:57 | 11.21182 | -134.76649 | 33922 ft | 482 kts | 239° |
| 2026-04-30 09:58 | 11.17678 | -134.82489 | 33926 ft | 482 kts | 239° |
| 2026-04-30 09:58 | 11.14177 | -134.88324 | 33922 ft | 482 kts | 239° |
| 2026-04-30 09:59 | 11.07196 | -134.99945 | 33923 ft | 483 kts | 239° |
| 2026-04-30 10:00 | 11.01934 | -135.08694 | 33921 ft | 483 kts | 238° |
| 2026-04-30 10:01 | 10.96651 | -135.17474 | 33921 ft | 483 kts | 238° |
| 2026-04-30 10:02 | 10.91392 | -135.26204 | 33917 ft | 483 kts | 238° |
| 2026-04-30 10:02 | 10.87895 | -135.32006 | 33924 ft | 483 kts | 238° |
| 2026-04-30 10:03 | 10.84395 | -135.37808 | 33921 ft | 483 kts | 238° |
| 2026-04-30 10:03 | 10.80872 | -135.43649 | 33918 ft | 483 kts | 238° |
| 2026-04-30 10:04 | 10.77347 | -135.49485 | 33916 ft | 483 kts | 238° |
| 2026-04-30 10:04 | 10.73835 | -135.55298 | 33915 ft | 482 kts | 238° |
| 2026-04-30 10:05 | 10.70346 | -135.61071 | 33913 ft | 481 kts | 238° |
| 2026-04-30 10:05 | 10.66851 | -135.66852 | 33919 ft | 480 kts | 239° |
| 2026-04-30 10:06 | 10.63350 | -135.72639 | 33912 ft | 480 kts | 239° |
| 2026-04-30 10:06 | 10.59840 | -135.78436 | 33916 ft | 480 kts | 239° |
| 2026-04-30 10:07 | 10.56345 | -135.84207 | 33915 ft | 480 kts | 239° |
| 2026-04-30 10:07 | 10.52852 | -135.89971 | 33912 ft | 481 kts | 239° |
| 2026-04-30 10:08 | 10.49332 | -135.95777 | 33910 ft | 481 kts | 239° |
| 2026-04-30 10:08 | 10.45829 | -136.01552 | 33914 ft | 481 kts | 239° |
| 2026-04-30 10:09 | 10.42305 | -136.07358 | 33910 ft | 482 kts | 239° |
| 2026-04-30 10:09 | 10.38795 | -136.13138 | 33911 ft | 482 kts | 239° |
| 2026-04-30 10:10 | 10.35276 | -136.18930 | 33911 ft | 482 kts | 239° |
| 2026-04-30 10:10 | 10.31740 | -136.24746 | 33910 ft | 482 kts | 239° |
| 2026-04-30 10:11 | 10.28233 | -136.30512 | 33909 ft | 482 kts | 239° |
| 2026-04-30 10:11 | 10.24692 | -136.36331 | 33911 ft | 483 kts | 239° |
| 2026-04-30 10:12 | 10.21176 | -136.42106 | 33909 ft | 483 kts | 239° |
| 2026-04-30 10:12 | 10.17656 | -136.47885 | 33911 ft | 482 kts | 239° |
| 2026-04-30 10:13 | 10.14112 | -136.53700 | 33913 ft | 482 kts | 239° |
| 2026-04-30 10:13 | 10.10597 | -136.59464 | 33910 ft | 482 kts | 239° |
| 2026-04-30 10:14 | 10.07074 | -136.65238 | 33910 ft | 481 kts | 240° |
| 2026-04-30 10:14 | 10.01796 | -136.73885 | 33910 ft | 481 kts | 240° |
| 2026-04-30 10:15 | 9.98268 | -136.79661 | 33912 ft | 480 kts | 240° |
| 2026-04-30 10:15 | 9.94744 | -136.85426 | 33909 ft | 480 kts | 240° |
| 2026-04-30 10:16 | 9.91247 | -136.91145 | 33911 ft | 479 kts | 240° |
| 2026-04-30 10:17 | 9.85987 | -136.99743 | 33905 ft | 478 kts | 240° |
| 2026-04-30 10:17 | 9.80714 | -137.08354 | 33901 ft | 477 kts | 240° |
| 2026-04-30 10:18 | 9.77223 | -137.14054 | 33909 ft | 477 kts | 240° |
| 2026-04-30 10:19 | 9.71971 | -137.22621 | 33907 ft | 477 kts | 240° |
| 2026-04-30 10:19 | 9.68477 | -137.28318 | 33906 ft | 478 kts | 240° |
| 2026-04-30 10:20 | 9.64962 | -137.34046 | 33906 ft | 478 kts | 240° |
| 2026-04-30 10:20 | 9.59705 | -137.42606 | 33905 ft | 478 kts | 239° |
| 2026-04-30 10:21 | 9.56175 | -137.48352 | 33904 ft | 479 kts | 239° |
| 2026-04-30 10:21 | 9.52667 | -137.54059 | 33911 ft | 479 kts | 240° |
| 2026-04-30 10:22 | 9.49129 | -137.59812 | 33911 ft | 479 kts | 239° |
| 2026-04-30 10:22 | 9.45611 | -137.65529 | 33909 ft | 479 kts | 239° |
| 2026-04-30 10:23 | 9.42091 | -137.71249 | 33905 ft | 479 kts | 239° |
| 2026-04-30 10:23 | 9.38556 | -137.76989 | 33909 ft | 479 kts | 239° |
| 2026-04-30 10:24 | 9.35031 | -137.82709 | 33898 ft | 479 kts | 239° |
| 2026-04-30 10:24 | 9.31495 | -137.88446 | 33901 ft | 479 kts | 239° |
| 2026-04-30 10:25 | 9.27975 | -137.94154 | 33905 ft | 480 kts | 239° |
| 2026-04-30 10:25 | 9.24434 | -137.99893 | 33901 ft | 480 kts | 239° |
| 2026-04-30 10:26 | 9.20911 | -138.05599 | 33903 ft | 480 kts | 239° |
| 2026-04-30 10:26 | 9.17379 | -138.11320 | 33901 ft | 480 kts | 239° |
| 2026-04-30 10:27 | 9.13826 | -138.17070 | 33901 ft | 480 kts | 239° |
| 2026-04-30 10:27 | 9.10292 | -138.22787 | 33903 ft | 481 kts | 239° |
| 2026-04-30 10:28 | 9.06738 | -138.28535 | 33903 ft | 481 kts | 239° |
| 2026-04-30 10:28 | 9.03199 | -138.34255 | 33900 ft | 481 kts | 239° |
| 2026-04-30 10:29 | 8.99660 | -138.39972 | 33900 ft | 481 kts | 239° |
| 2026-04-30 10:29 | 8.96100 | -138.45722 | 33902 ft | 481 kts | 239° |
| 2026-04-30 10:30 | 8.92540 | -138.51468 | 33903 ft | 481 kts | 240° |
| 2026-04-30 10:30 | 8.88995 | -138.57189 | 33895 ft | 481 kts | 239° |
| 2026-04-30 10:31 | 8.85457 | -138.62894 | 33899 ft | 481 kts | 239° |
| 2026-04-30 10:31 | 8.81899 | -138.68630 | 33903 ft | 481 kts | 240° |
| 2026-04-30 10:32 | 8.78351 | -138.74348 | 33900 ft | 480 kts | 240° |
| 2026-04-30 10:32 | 8.74810 | -138.80051 | 33896 ft | 480 kts | 240° |
| 2026-04-30 10:33 | 8.71242 | -138.85796 | 33901 ft | 480 kts | 240° |
| 2026-04-30 10:33 | 8.67700 | -138.91496 | 33897 ft | 480 kts | 240° |
| 2026-04-30 10:34 | 8.64154 | -138.97199 | 33905 ft | 480 kts | 240° |
| 2026-04-30 10:34 | 8.60583 | -139.02942 | 33902 ft | 480 kts | 240° |
| 2026-04-30 10:35 | 8.57037 | -139.08641 | 33902 ft | 480 kts | 240° |
| 2026-04-30 10:35 | 8.53490 | -139.14339 | 33905 ft | 480 kts | 240° |
| 2026-04-30 10:36 | 8.50531 | -139.19092 | 33890 ft | 480 kts | 240° |
| 2026-04-30 10:36 | 8.46980 | -139.24792 | 33901 ft | 480 kts | 240° |
| 2026-04-30 10:37 | 8.43407 | -139.30526 | 33900 ft | 480 kts | 240° |
| 2026-04-30 10:37 | 8.39252 | -139.37190 | 33901 ft | 480 kts | 240° |
| 2026-04-30 10:38 | 8.36291 | -139.41938 | 33901 ft | 480 kts | 240° |
| 2026-04-30 10:38 | 8.32742 | -139.47626 | 33904 ft | 480 kts | 240° |
| 2026-04-30 10:39 | 8.29195 | -139.53308 | 33901 ft | 480 kts | 240° |
| 2026-04-30 10:39 | 8.25617 | -139.59037 | 33895 ft | 480 kts | 240° |
| 2026-04-30 10:40 | 8.22063 | -139.64727 | 33896 ft | 480 kts | 240° |
| 2026-04-30 10:40 | 8.18509 | -139.70414 | 33904 ft | 480 kts | 240° |
| 2026-04-30 10:41 | 8.14935 | -139.76130 | 33905 ft | 481 kts | 240° |
| 2026-04-30 10:41 | 8.11360 | -139.81846 | 33888 ft | 481 kts | 240° |
| 2026-04-30 10:42 | 8.07805 | -139.87530 | 33891 ft | 481 kts | 240° |
| 2026-04-30 10:42 | 8.04226 | -139.93248 | 33892 ft | 481 kts | 240° |
| 2026-04-30 10:43 | 8.00668 | -139.98930 | 33904 ft | 481 kts | 240° |
| 2026-04-30 10:43 | 7.97155 | -140.04722 | 33908 ft | 480 kts | 242° |
| 2026-04-30 10:44 | 7.93800 | -140.10512 | 33891 ft | 480 kts | 242° |
| 2026-04-30 10:44 | 7.90440 | -140.16319 | 33890 ft | 480 kts | 242° |
| 2026-04-30 10:45 | 7.87043 | -140.22150 | 33900 ft | 480 kts | 242° |
| 2026-04-30 10:45 | 7.83663 | -140.27926 | 33899 ft | 480 kts | 242° |
| 2026-04-30 10:46 | 7.80256 | -140.33741 | 33895 ft | 480 kts | 242° |
| 2026-04-30 10:46 | 7.76865 | -140.39528 | 33889 ft | 480 kts | 242° |
| 2026-04-30 10:47 | 7.73480 | -140.45303 | 33906 ft | 480 kts | 242° |
| 2026-04-30 10:47 | 7.70074 | -140.51113 | 33903 ft | 480 kts | 242° |
| 2026-04-30 10:48 | 7.66691 | -140.56881 | 33895 ft | 480 kts | 242° |
| 2026-04-30 10:48 | 7.63283 | -140.62690 | 33889 ft | 479 kts | 242° |
| 2026-04-30 10:49 | 7.59900 | -140.68453 | 33892 ft | 479 kts | 242° |
| 2026-04-30 10:49 | 7.56509 | -140.74228 | 33902 ft | 479 kts | 242° |
| 2026-04-30 10:50 | 7.53103 | -140.80027 | 33895 ft | 479 kts | 242° |
| 2026-04-30 10:50 | 7.49719 | -140.85785 | 33887 ft | 478 kts | 242° |
| 2026-04-30 10:51 | 7.46347 | -140.91521 | 33893 ft | 478 kts | 242° |
| 2026-04-30 10:51 | 7.42945 | -140.97306 | 33893 ft | 478 kts | 242° |
| 2026-04-30 10:52 | 7.39563 | -141.03056 | 33887 ft | 477 kts | 242° |
| 2026-04-30 10:52 | 7.36189 | -141.08788 | 33888 ft | 477 kts | 242° |
| 2026-04-30 10:53 | 7.32798 | -141.14548 | 33889 ft | 476 kts | 242° |
| 2026-04-30 10:53 | 7.29429 | -141.20269 | 33886 ft | 476 kts | 242° |
| 2026-04-30 10:54 | 7.26062 | -141.25984 | 33890 ft | 475 kts | 242° |
| 2026-04-30 10:54 | 7.22692 | -141.31701 | 33890 ft | 475 kts | 242° |
| 2026-04-30 10:55 | 7.19295 | -141.37465 | 33900 ft | 480 kts | 241° |
| 2026-04-30 10:55 | 7.15865 | -141.43282 | 33902 ft | 489 kts | 241° |
| 2026-04-30 10:56 | 7.12362 | -141.49220 | 33884 ft | 492 kts | 241° |
| 2026-04-30 10:56 | 7.08867 | -141.55139 | 33882 ft | 494 kts | 241° |
| 2026-04-30 10:57 | 7.05372 | -141.61058 | 33893 ft | 493 kts | 241° |
| 2026-04-30 10:57 | 7.01854 | -141.67012 | 33883 ft | 492 kts | 241° |
| 2026-04-30 10:58 | 6.98365 | -141.72917 | 33884 ft | 490 kts | 241° |
| 2026-04-30 10:58 | 6.94895 | -141.78787 | 33883 ft | 489 kts | 241° |
| 2026-04-30 10:59 | 6.91433 | -141.84642 | 33882 ft | 487 kts | 241° |
| 2026-04-30 10:59 | 6.87973 | -141.90492 | 33885 ft | 486 kts | 241° |
| 2026-04-30 11:00 | 6.84499 | -141.96364 | 33895 ft | 486 kts | 240° |
| 2026-04-30 11:00 | 6.81048 | -142.02195 | 33889 ft | 486 kts | 240° |
| 2026-04-30 11:01 | 6.77577 | -142.08055 | 33879 ft | 486 kts | 240° |
| 2026-04-30 11:01 | 6.74127 | -142.13881 | 33880 ft | 487 kts | 240° |
| 2026-04-30 11:02 | 6.70671 | -142.19713 | 33889 ft | 487 kts | 240° |
| 2026-04-30 11:02 | 6.67185 | -142.25594 | 33882 ft | 488 kts | 240° |
| 2026-04-30 11:03 | 6.63730 | -142.31421 | 33885 ft | 488 kts | 240° |
| 2026-04-30 11:04 | 6.58518 | -142.40207 | 33886 ft | 488 kts | 240° |
| 2026-04-30 11:04 | 6.55029 | -142.46087 | 33880 ft | 488 kts | 240° |
| 2026-04-30 11:05 | 6.51557 | -142.51936 | 33881 ft | 488 kts | 240° |
| 2026-04-30 11:05 | 6.48084 | -142.57783 | 33885 ft | 488 kts | 240° |
| 2026-04-30 11:06 | 6.44586 | -142.63672 | 33888 ft | 488 kts | 240° |
| 2026-04-30 11:06 | 6.41111 | -142.69520 | 33885 ft | 488 kts | 240° |
| 2026-04-30 11:07 | 6.37634 | -142.75371 | 33884 ft | 489 kts | 240° |
| 2026-04-30 11:07 | 6.34137 | -142.81251 | 33884 ft | 489 kts | 240° |
| 2026-04-30 11:08 | 6.30659 | -142.87098 | 33889 ft | 489 kts | 240° |
| 2026-04-30 11:08 | 6.27157 | -142.92983 | 33885 ft | 489 kts | 240° |
| 2026-04-30 11:09 | 6.23679 | -142.98828 | 33886 ft | 489 kts | 240° |
| 2026-04-30 11:09 | 6.20197 | -143.04675 | 33886 ft | 488 kts | 240° |
| 2026-04-30 11:10 | 6.16697 | -143.10553 | 33884 ft | 488 kts | 240° |
| 2026-04-30 11:10 | 6.13221 | -143.16387 | 33880 ft | 488 kts | 240° |
| 2026-04-30 11:11 | 6.09740 | -143.22227 | 33882 ft | 488 kts | 240° |
| 2026-04-30 11:11 | 6.06240 | -143.28099 | 33880 ft | 487 kts | 240° |
| 2026-04-30 11:12 | 6.02763 | -143.33930 | 33883 ft | 487 kts | 240° |
| 2026-04-30 11:12 | 5.99290 | -143.39752 | 33881 ft | 487 kts | 240° |
| 2026-04-30 11:13 | 5.95808 | -143.45589 | 33881 ft | 487 kts | 240° |
| 2026-04-30 11:13 | 5.92330 | -143.51415 | 33879 ft | 487 kts | 240° |
| 2026-04-30 11:14 | 5.88844 | -143.57253 | 33882 ft | 486 kts | 240° |
| 2026-04-30 11:14 | 5.85368 | -143.63074 | 33885 ft | 486 kts | 240° |
| 2026-04-30 11:15 | 5.81900 | -143.68880 | 33882 ft | 486 kts | 241° |
| 2026-04-30 11:15 | 5.78405 | -143.74728 | 33880 ft | 486 kts | 241° |
| 2026-04-30 11:16 | 5.74937 | -143.80530 | 33878 ft | 486 kts | 241° |
| 2026-04-30 11:16 | 5.71466 | -143.86335 | 33883 ft | 485 kts | 241° |
| 2026-04-30 11:17 | 5.67992 | -143.92144 | 33880 ft | 485 kts | 241° |
| 2026-04-30 11:17 | 5.64511 | -143.97962 | 33881 ft | 485 kts | 241° |
| 2026-04-30 11:18 | 5.61046 | -144.03753 | 33883 ft | 484 kts | 241° |
| 2026-04-30 11:18 | 5.55857 | -144.12420 | 33883 ft | 484 kts | 241° |
| 2026-04-30 11:19 | 5.52380 | -144.18227 | 33881 ft | 483 kts | 241° |
| 2026-04-30 11:19 | 5.48927 | -144.23991 | 33882 ft | 483 kts | 241° |
| 2026-04-30 11:20 | 5.45474 | -144.29753 | 33880 ft | 483 kts | 241° |
| 2026-04-30 11:20 | 5.42006 | -144.35540 | 33883 ft | 483 kts | 241° |
| 2026-04-30 11:21 | 5.38533 | -144.41333 | 33881 ft | 482 kts | 241° |
| 2026-04-30 11:21 | 5.35090 | -144.47074 | 33882 ft | 482 kts | 241° |
| 2026-04-30 11:22 | 5.31640 | -144.52826 | 33878 ft | 482 kts | 241° |
| 2026-04-30 11:22 | 5.28173 | -144.58604 | 33877 ft | 482 kts | 241° |
| 2026-04-30 11:23 | 5.24722 | -144.64354 | 33881 ft | 481 kts | 241° |
| 2026-04-30 11:24 | 5.20125 | -144.72012 | 33881 ft | 481 kts | 241° |
| 2026-04-30 11:24 | 5.16680 | -144.77747 | 33878 ft | 481 kts | 241° |
| 2026-04-30 11:25 | 5.11507 | -144.86359 | 33880 ft | 480 kts | 241° |
| 2026-04-30 11:26 | 5.04611 | -144.97834 | 33879 ft | 480 kts | 241° |
| 2026-04-30 11:26 | 5.01171 | -145.03556 | 33881 ft | 480 kts | 241° |
| 2026-04-30 11:27 | 4.97713 | -145.09306 | 33878 ft | 480 kts | 241° |
| 2026-04-30 11:27 | 4.94280 | -145.15013 | 33879 ft | 479 kts | 241° |
| 2026-04-30 11:28 | 4.89121 | -145.23587 | 33880 ft | 479 kts | 241° |
| 2026-04-30 11:29 | 4.85667 | -145.29326 | 33879 ft | 479 kts | 241° |
| 2026-04-30 11:29 | 4.80503 | -145.37903 | 33878 ft | 479 kts | 241° |
| 2026-04-30 11:30 | 4.75328 | -145.46496 | 33878 ft | 479 kts | 241° |
| 2026-04-30 11:31 | 4.71872 | -145.52233 | 33879 ft | 479 kts | 241° |
| 2026-04-30 11:31 | 4.68432 | -145.57941 | 33878 ft | 480 kts | 241° |
| 2026-04-30 11:32 | 4.64989 | -145.63654 | 33880 ft | 480 kts | 241° |
| 2026-04-30 11:32 | 4.61545 | -145.69366 | 33876 ft | 480 kts | 241° |
| 2026-04-30 11:33 | 4.56371 | -145.77946 | 33880 ft | 480 kts | 241° |
| 2026-04-30 11:33 | 4.52901 | -145.83699 | 33877 ft | 480 kts | 241° |
| 2026-04-30 11:34 | 4.49464 | -145.89394 | 33876 ft | 480 kts | 241° |
| 2026-04-30 11:34 | 4.45997 | -145.95140 | 33876 ft | 480 kts | 241° |
| 2026-04-30 11:35 | 4.42555 | -146.00843 | 33877 ft | 480 kts | 241° |
| 2026-04-30 11:35 | 4.39091 | -146.06580 | 33876 ft | 480 kts | 241° |
| 2026-04-30 11:36 | 4.35649 | -146.12280 | 33879 ft | 480 kts | 241° |
| 2026-04-30 11:36 | 4.32183 | -146.18019 | 33877 ft | 480 kts | 241° |
| 2026-04-30 11:37 | 4.28738 | -146.23722 | 33880 ft | 480 kts | 241° |
| 2026-04-30 11:37 | 4.25294 | -146.29422 | 33876 ft | 479 kts | 241° |
| 2026-04-30 11:38 | 4.21829 | -146.35156 | 33876 ft | 479 kts | 241° |
| 2026-04-30 11:38 | 4.18497 | -146.40894 | 33857 ft | 474 kts | 250° |
| 2026-04-30 11:39 | 4.17649 | -146.44070 | 33878 ft | 471 kts | 265° |
| 2026-04-30 11:39 | 4.17686 | -146.47356 | 33887 ft | 471 kts | 278° |
| 2026-04-30 11:39 | 4.18469 | -146.50511 | 33878 ft | 474 kts | 289° |
| 2026-04-30 11:39 | 4.19921 | -146.53505 | 33883 ft | 478 kts | 300° |
| 2026-04-30 11:40 | 4.23781 | -146.58850 | 33866 ft | 472 kts | 291° |
| 2026-04-30 11:40 | 4.24595 | -146.62022 | 33882 ft | 470 kts | 272° |
| 2026-04-30 11:40 | 4.24264 | -146.65292 | 33883 ft | 473 kts | 253° |
| 2026-04-30 11:41 | 4.22858 | -146.68241 | 33884 ft | 480 kts | 237° |
| 2026-04-30 11:41 | 4.20735 | -146.70852 | 33886 ft | 485 kts | 230° |
| 2026-04-30 11:41 | 4.16392 | -146.76066 | 33867 ft | 487 kts | 239° |
| 2026-04-30 11:42 | 4.14891 | -146.79099 | 33865 ft | 483 kts | 255° |
| 2026-04-30 11:42 | 4.14422 | -146.82382 | 33880 ft | 482 kts | 272° |
| 2026-04-30 11:42 | 4.15514 | -146.89019 | 33876 ft | 483 kts | 280° |
| 2026-04-30 11:43 | 4.16180 | -146.95655 | 33854 ft | 480 kts | 261° |
| 2026-04-30 11:43 | 4.15164 | -146.98835 | 33874 ft | 481 kts | 242° |
| 2026-04-30 11:43 | 4.13134 | -147.01504 | 33879 ft | 486 kts | 226° |
| 2026-04-30 11:44 | 4.07680 | -147.05528 | 33884 ft | 490 kts | 216° |
| 2026-04-30 11:44 | 4.01832 | -147.09106 | 33869 ft | 491 kts | 214° |
| 2026-04-30 11:45 | 3.95998 | -147.12648 | 33874 ft | 491 kts | 215° |
| 2026-04-30 11:45 | 3.90205 | -147.16263 | 33878 ft | 490 kts | 216° |
| 2026-04-30 11:46 | 3.84481 | -147.19959 | 33874 ft | 490 kts | 216° |
| 2026-04-30 11:46 | 3.78923 | -147.23840 | 33867 ft | 488 kts | 222° |
| 2026-04-30 11:47 | 3.74236 | -147.28669 | 33881 ft | 483 kts | 234° |
| 2026-04-30 11:47 | 3.70406 | -147.34210 | 33882 ft | 482 kts | 239° |
| 2026-04-30 11:48 | 3.66888 | -147.39905 | 33876 ft | 483 kts | 240° |
| 2026-04-30 11:48 | 3.63326 | -147.45645 | 33876 ft | 484 kts | 239° |
| 2026-04-30 11:49 | 3.59725 | -147.51326 | 33875 ft | 485 kts | 239° |
| 2026-04-30 11:49 | 3.56071 | -147.57032 | 33878 ft | 486 kts | 239° |
| 2026-04-30 11:50 | 3.52435 | -147.62699 | 33877 ft | 486 kts | 239° |
| 2026-04-30 11:50 | 3.48770 | -147.68417 | 33875 ft | 486 kts | 239° |
| 2026-04-30 11:51 | 3.45119 | -147.74115 | 33879 ft | 486 kts | 239° |
| 2026-04-30 11:51 | 3.41478 | -147.79799 | 33876 ft | 486 kts | 239° |
| 2026-04-30 11:52 | 3.37841 | -147.85475 | 33879 ft | 486 kts | 239° |
| 2026-04-30 11:52 | 3.34173 | -147.91199 | 33881 ft | 485 kts | 239° |
| 2026-04-30 11:53 | 3.30541 | -147.96865 | 33882 ft | 485 kts | 239° |
| 2026-04-30 11:53 | 3.26912 | -148.02525 | 33876 ft | 485 kts | 239° |
| 2026-04-30 11:54 | 3.23257 | -148.08226 | 33877 ft | 485 kts | 239° |
| 2026-04-30 11:54 | 3.19626 | -148.13888 | 33876 ft | 484 kts | 239° |
| 2026-04-30 11:55 | 3.16001 | -148.19540 | 33878 ft | 485 kts | 239° |
| 2026-04-30 11:55 | 3.12343 | -148.25243 | 33879 ft | 485 kts | 238° |
| 2026-04-30 11:56 | 3.08716 | -148.30895 | 33881 ft | 485 kts | 238° |
| 2026-04-30 11:56 | 3.05053 | -148.36604 | 33879 ft | 486 kts | 238° |
| 2026-04-30 11:57 | 3.01415 | -148.42272 | 33881 ft | 486 kts | 238° |
| 2026-04-30 11:57 | 2.97753 | -148.47977 | 33879 ft | 486 kts | 238° |
| 2026-04-30 11:58 | 2.94101 | -148.53665 | 33882 ft | 486 kts | 238° |
| 2026-04-30 11:58 | 2.90452 | -148.59349 | 33881 ft | 487 kts | 238° |
| 2026-04-30 11:59 | 2.86810 | -148.65021 | 33883 ft | 487 kts | 238° |
| 2026-04-30 11:59 | 2.83137 | -148.70740 | 33882 ft | 487 kts | 238° |
| 2026-04-30 12:00 | 2.79460 | -148.76463 | 33881 ft | 488 kts | 238° |
| 2026-04-30 12:00 | 2.75798 | -148.82164 | 33883 ft | 488 kts | 238° |
| 2026-04-30 12:01 | 2.72146 | -148.87848 | 33883 ft | 488 kts | 238° |
| 2026-04-30 12:01 | 2.68480 | -148.93553 | 33883 ft | 488 kts | 238° |
| 2026-04-30 12:02 | 2.64802 | -148.99275 | 33883 ft | 488 kts | 238° |
| 2026-04-30 12:02 | 2.61120 | -149.05004 | 33882 ft | 488 kts | 238° |
| 2026-04-30 12:03 | 2.55616 | -149.13566 | 33882 ft | 488 kts | 238° |
| 2026-04-30 12:04 | 2.51957 | -149.19256 | 33883 ft | 488 kts | 238° |
| 2026-04-30 12:04 | 2.48270 | -149.24989 | 33881 ft | 488 kts | 238° |
| 2026-04-30 12:05 | 2.44602 | -149.30692 | 33886 ft | 488 kts | 238° |
| 2026-04-30 12:05 | 2.40934 | -149.36396 | 33885 ft | 488 kts | 238° |
| 2026-04-30 12:06 | 2.37248 | -149.42126 | 33881 ft | 488 kts | 238° |
| 2026-04-30 12:06 | 2.33586 | -149.47817 | 33881 ft | 489 kts | 238° |
| 2026-04-30 12:07 | 2.29914 | -149.53524 | 33882 ft | 489 kts | 238° |
| 2026-04-30 12:07 | 2.26224 | -149.59260 | 33883 ft | 489 kts | 238° |
| 2026-04-30 12:08 | 2.22554 | -149.64962 | 33882 ft | 489 kts | 238° |
| 2026-04-30 12:08 | 2.18861 | -149.70699 | 33880 ft | 489 kts | 238° |
| 2026-04-30 12:09 | 2.15190 | -149.76403 | 33883 ft | 489 kts | 238° |
| 2026-04-30 12:09 | 2.11511 | -149.82118 | 33881 ft | 489 kts | 238° |
| 2026-04-30 12:10 | 2.07831 | -149.87835 | 33883 ft | 489 kts | 238° |
| 2026-04-30 12:10 | 2.04133 | -149.93580 | 33884 ft | 489 kts | 238° |
| 2026-04-30 12:11 | 2.00864 | -149.99494 | 33886 ft | 488 kts | 247° |
| 2026-04-30 12:11 | 1.98561 | -150.05887 | 33881 ft | 488 kts | 256° |
| 2026-04-30 12:12 | 1.97024 | -150.12462 | 33885 ft | 488 kts | 257° |
| 2026-04-30 12:12 | 1.95789 | -150.17993 | 33884 ft | 488 kts | 257° |
| 2026-04-30 12:13 | 1.94290 | -150.24619 | 33882 ft | 488 kts | 257° |
| 2026-04-30 12:13 | 1.92770 | -150.31222 | 33882 ft | 488 kts | 257° |
| 2026-04-30 12:14 | 1.91244 | -150.37806 | 33882 ft | 488 kts | 257° |
| 2026-04-30 12:14 | 1.89703 | -150.44441 | 33888 ft | 488 kts | 257° |
| 2026-04-30 12:15 | 1.88174 | -150.51037 | 33885 ft | 489 kts | 257° |
| 2026-04-30 12:15 | 1.86642 | -150.57643 | 33883 ft | 489 kts | 257° |
| 2026-04-30 12:16 | 1.85100 | -150.64291 | 33881 ft | 489 kts | 256° |
| 2026-04-30 12:16 | 1.83568 | -150.70899 | 33881 ft | 489 kts | 256° |
| 2026-04-30 12:17 | 1.81260 | -150.80849 | 33882 ft | 489 kts | 256° |
| 2026-04-30 12:17 | 1.79729 | -150.87448 | 33883 ft | 490 kts | 256° |
| 2026-04-30 12:18 | 1.78184 | -150.94105 | 33882 ft | 490 kts | 256° |
| 2026-04-30 12:18 | 1.76646 | -151.00731 | 33882 ft | 490 kts | 256° |
| 2026-04-30 12:19 | 1.75110 | -151.07347 | 33883 ft | 490 kts | 256° |
| 2026-04-30 12:19 | 1.73566 | -151.13996 | 33882 ft | 491 kts | 256° |
| 2026-04-30 12:20 | 1.72029 | -151.20615 | 33884 ft | 491 kts | 256° |
| 2026-04-30 12:20 | 1.70482 | -151.27276 | 33885 ft | 491 kts | 256° |
| 2026-04-30 12:21 | 1.68941 | -151.33911 | 33879 ft | 491 kts | 256° |
| 2026-04-30 12:21 | 1.67390 | -151.40585 | 33880 ft | 492 kts | 256° |
| 2026-04-30 12:22 | 1.65837 | -151.47267 | 33883 ft | 492 kts | 256° |
| 2026-04-30 12:22 | 1.64295 | -151.53902 | 33878 ft | 492 kts | 256° |
| 2026-04-30 12:23 | 1.62740 | -151.60591 | 33877 ft | 493 kts | 256° |
| 2026-04-30 12:23 | 1.61192 | -151.67251 | 33878 ft | 493 kts | 256° |
| 2026-04-30 12:24 | 1.59644 | -151.73906 | 33881 ft | 493 kts | 256° |
| 2026-04-30 12:24 | 1.58084 | -151.80618 | 33881 ft | 494 kts | 256° |
| 2026-04-30 12:25 | 1.56532 | -151.87289 | 33879 ft | 494 kts | 256° |
| 2026-04-30 12:25 | 1.54971 | -151.94001 | 33880 ft | 495 kts | 256° |
| 2026-04-30 12:26 | 1.53419 | -152.00671 | 33880 ft | 495 kts | 256° |
| 2026-04-30 12:26 | 1.51861 | -152.07364 | 33878 ft | 495 kts | 256° |
| 2026-04-30 12:27 | 1.50291 | -152.14109 | 33884 ft | 496 kts | 256° |
| 2026-04-30 12:27 | 1.48731 | -152.20812 | 33881 ft | 496 kts | 256° |
| 2026-04-30 12:28 | 1.47173 | -152.27507 | 33882 ft | 497 kts | 256° |
| 2026-04-30 12:28 | 1.45604 | -152.34243 | 33882 ft | 497 kts | 256° |
| 2026-04-30 12:29 | 1.44042 | -152.40953 | 33882 ft | 497 kts | 256° |
| 2026-04-30 12:29 | 1.42467 | -152.47715 | 33882 ft | 497 kts | 256° |
| 2026-04-30 12:30 | 1.40900 | -152.54441 | 33882 ft | 498 kts | 256° |
| 2026-04-30 12:30 | 1.39336 | -152.61153 | 33880 ft | 498 kts | 256° |
| 2026-04-30 12:31 | 1.37761 | -152.67915 | 33881 ft | 498 kts | 256° |
| 2026-04-30 12:31 | 1.36195 | -152.74635 | 33879 ft | 498 kts | 256° |
| 2026-04-30 12:32 | 1.34616 | -152.81408 | 33876 ft | 499 kts | 256° |
| 2026-04-30 12:32 | 1.33041 | -152.88166 | 33877 ft | 499 kts | 256° |
| 2026-04-30 12:33 | 1.31472 | -152.94896 | 33876 ft | 499 kts | 256° |
| 2026-04-30 12:33 | 1.29891 | -153.01679 | 33889 ft | 499 kts | 256° |
| 2026-04-30 12:34 | 1.28317 | -153.08427 | 33898 ft | 499 kts | 256° |
| 2026-04-30 12:34 | 1.26748 | -153.15155 | 33888 ft | 500 kts | 255° |
| 2026-04-30 12:35 | 1.25174 | -153.21904 | 33875 ft | 500 kts | 255° |
| 2026-04-30 12:35 | 1.23591 | -153.28689 | 33874 ft | 500 kts | 255° |
| 2026-04-30 12:36 | 1.22015 | -153.35447 | 33874 ft | 500 kts | 255° |
| 2026-04-30 12:36 | 1.20430 | -153.42240 | 33881 ft | 501 kts | 255° |
| 2026-04-30 12:37 | 1.18850 | -153.49009 | 33868 ft | 501 kts | 255° |
| 2026-04-30 12:37 | 1.17273 | -153.55768 | 33873 ft | 501 kts | 255° |
| 2026-04-30 12:38 | 1.15689 | -153.62552 | 33875 ft | 502 kts | 255° |
| 2026-04-30 12:38 | 1.14102 | -153.69352 | 33876 ft | 502 kts | 255° |
| 2026-04-30 12:39 | 1.12520 | -153.76127 | 33872 ft | 502 kts | 255° |
| 2026-04-30 12:39 | 1.10927 | -153.82951 | 33872 ft | 502 kts | 255° |
| 2026-04-30 12:40 | 1.09342 | -153.89740 | 33873 ft | 503 kts | 255° |
| 2026-04-30 12:40 | 1.07757 | -153.96526 | 33885 ft | 503 kts | 255° |
| 2026-04-30 12:41 | 1.06162 | -154.03356 | 33873 ft | 503 kts | 255° |
| 2026-04-30 12:41 | 1.04570 | -154.10173 | 33876 ft | 504 kts | 255° |
| 2026-04-30 12:42 | 1.02978 | -154.16984 | 33879 ft | 504 kts | 255° |
| 2026-04-30 12:42 | 1.01389 | -154.23785 | 33873 ft | 504 kts | 255° |
| 2026-04-30 12:43 | 0.99793 | -154.30618 | 33880 ft | 504 kts | 255° |
| 2026-04-30 12:43 | 0.98194 | -154.37461 | 33872 ft | 505 kts | 256° |
| 2026-04-30 12:44 | 0.96602 | -154.44272 | 33873 ft | 505 kts | 256° |
| 2026-04-30 12:44 | 0.95010 | -154.51084 | 33872 ft | 505 kts | 256° |
| 2026-04-30 12:45 | 0.93411 | -154.57927 | 33876 ft | 505 kts | 256° |
| 2026-04-30 12:45 | 0.91816 | -154.64749 | 33871 ft | 505 kts | 256° |
| 2026-04-30 12:46 | 0.90216 | -154.71592 | 33875 ft | 505 kts | 256° |
| 2026-04-30 12:46 | 0.88625 | -154.78395 | 33873 ft | 505 kts | 256° |
| 2026-04-30 12:47 | 0.87030 | -154.85216 | 33867 ft | 505 kts | 256° |
| 2026-04-30 12:47 | 0.85429 | -154.92066 | 33873 ft | 504 kts | 256° |
| 2026-04-30 12:48 | 0.83838 | -154.98866 | 33871 ft | 504 kts | 256° |
| 2026-04-30 12:48 | 0.82244 | -155.05682 | 33874 ft | 504 kts | 256° |
| 2026-04-30 12:49 | 0.80643 | -155.12525 | 33874 ft | 504 kts | 256° |
| 2026-04-30 12:49 | 0.79055 | -155.19316 | 33865 ft | 504 kts | 256° |
| 2026-04-30 12:50 | 0.77465 | -155.26112 | 33877 ft | 504 kts | 256° |
| 2026-04-30 12:50 | 0.75868 | -155.32938 | 33870 ft | 503 kts | 256° |
| 2026-04-30 12:51 | 0.74272 | -155.39760 | 33876 ft | 503 kts | 256° |
| 2026-04-30 12:51 | 0.72679 | -155.46567 | 33868 ft | 503 kts | 256° |
| 2026-04-30 12:52 | 0.71091 | -155.53352 | 33864 ft | 503 kts | 256° |
| 2026-04-30 12:52 | 0.69495 | -155.60171 | 33871 ft | 503 kts | 256° |
| 2026-04-30 12:53 | 0.67895 | -155.67008 | 33877 ft | 504 kts | 256° |
| 2026-04-30 12:53 | 0.66302 | -155.73813 | 33870 ft | 504 kts | 256° |
| 2026-04-30 12:54 | 0.64712 | -155.80608 | 33864 ft | 504 kts | 256° |
| 2026-04-30 12:54 | 0.63112 | -155.87442 | 33878 ft | 504 kts | 256° |
| 2026-04-30 12:55 | 0.61525 | -155.94219 | 33877 ft | 504 kts | 256° |
| 2026-04-30 12:55 | 0.59923 | -156.01063 | 33871 ft | 504 kts | 256° |
| 2026-04-30 12:56 | 0.58330 | -156.07867 | 33878 ft | 504 kts | 256° |
| 2026-04-30 12:56 | 0.56737 | -156.14670 | 33871 ft | 504 kts | 256° |
| 2026-04-30 12:57 | 0.55131 | -156.21528 | 33871 ft | 504 kts | 256° |
| 2026-04-30 12:57 | 0.53540 | -156.28322 | 33877 ft | 505 kts | 256° |
| 2026-04-30 12:58 | 0.52208 | -156.34011 | 33876 ft | 505 kts | 256° |
| 2026-04-30 12:58 | 0.50344 | -156.41971 | 33875 ft | 505 kts | 256° |
| 2026-04-30 12:59 | 0.49010 | -156.47668 | 33872 ft | 505 kts | 256° |
| 2026-04-30 12:59 | 0.47411 | -156.54494 | 33867 ft | 505 kts | 256° |
| 2026-04-30 13:00 | 0.45809 | -156.61333 | 33874 ft | 505 kts | 256° |
| 2026-04-30 13:00 | 0.44212 | -156.68150 | 33866 ft | 505 kts | 256° |
| 2026-04-30 13:01 | 0.42609 | -156.74995 | 33876 ft | 505 kts | 256° |
| 2026-04-30 13:01 | 0.41013 | -156.81805 | 33871 ft | 505 kts | 256° |
| 2026-04-30 13:02 | 0.39419 | -156.88611 | 33872 ft | 504 kts | 256° |
| 2026-04-30 13:02 | 0.37816 | -156.95454 | 33876 ft | 504 kts | 256° |
| 2026-04-30 13:03 | 0.36214 | -157.02292 | 33873 ft | 504 kts | 256° |
| 2026-04-30 13:03 | 0.34613 | -157.09125 | 33871 ft | 504 kts | 256° |
| 2026-04-30 13:04 | 0.33021 | -157.15918 | 33876 ft | 504 kts | 256° |
| 2026-04-30 13:04 | 0.31420 | -157.22750 | 33877 ft | 504 kts | 256° |
| 2026-04-30 13:05 | 0.29830 | -157.29537 | 33877 ft | 504 kts | 256° |
| 2026-04-30 13:06 | 0.27435 | -157.39760 | 33869 ft | 504 kts | 256° |
| 2026-04-30 13:06 | 0.25830 | -157.46607 | 33864 ft | 504 kts | 256° |
| 2026-04-30 13:07 | 0.24236 | -157.53409 | 33877 ft | 504 kts | 256° |
| 2026-04-30 13:07 | 0.22633 | -157.60251 | 33873 ft | 504 kts | 256° |
| 2026-04-30 13:08 | 0.21041 | -157.67044 | 33876 ft | 504 kts | 256° |
| 2026-04-30 13:08 | 0.19437 | -157.73888 | 33870 ft | 505 kts | 256° |
| 2026-04-30 13:09 | 0.17839 | -157.80705 | 33865 ft | 505 kts | 256° |
| 2026-04-30 13:09 | 0.16243 | -157.87514 | 33874 ft | 505 kts | 256° |
| 2026-04-30 13:10 | 0.14644 | -157.94337 | 33870 ft | 505 kts | 256° |
| 2026-04-30 13:10 | 0.13042 | -158.01174 | 33871 ft | 505 kts | 256° |
| 2026-04-30 13:11 | 0.11446 | -158.07984 | 33867 ft | 505 kts | 256° |
| 2026-04-30 13:11 | 0.09850 | -158.14793 | 33871 ft | 505 kts | 256° |
| 2026-04-30 13:12 | 0.08246 | -158.21638 | 33872 ft | 505 kts | 256° |
| 2026-04-30 13:12 | 0.06650 | -158.28445 | 33874 ft | 505 kts | 256° |
| 2026-04-30 13:13 | 0.04247 | -158.38699 | 33864 ft | 504 kts | 256° |
| 2026-04-30 13:14 | 0.01848 | -158.48932 | 33876 ft | 504 kts | 256° |
| 2026-04-30 13:14 | -0.00549 | -158.59158 | 33869 ft | 504 kts | 256° |
| 2026-04-30 13:15 | -0.02940 | -158.69362 | 33870 ft | 504 kts | 256° |
| 2026-04-30 13:16 | -0.04532 | -158.76153 | 33869 ft | 504 kts | 256° |
| 2026-04-30 13:16 | -0.06137 | -158.83000 | 33865 ft | 504 kts | 256° |
| 2026-04-30 13:17 | -0.08529 | -158.93207 | 33867 ft | 504 kts | 256° |
| 2026-04-30 13:18 | -0.10924 | -159.03425 | 33872 ft | 504 kts | 256° |
| 2026-04-30 13:18 | -0.13319 | -159.13645 | 33862 ft | 504 kts | 256° |
| 2026-04-30 13:19 | -0.14922 | -159.20485 | 33870 ft | 504 kts | 256° |
| 2026-04-30 13:19 | -0.16517 | -159.27291 | 33873 ft | 504 kts | 256° |
| 2026-04-30 13:20 | -0.18116 | -159.34110 | 33869 ft | 504 kts | 256° |
| 2026-04-30 13:20 | -0.19720 | -159.40956 | 33866 ft | 504 kts | 256° |
| 2026-04-30 13:21 | -0.21311 | -159.47743 | 33863 ft | 504 kts | 256° |
| 2026-04-30 13:22 | -0.23718 | -159.58017 | 33870 ft | 505 kts | 256° |
| 2026-04-30 13:22 | -0.26105 | -159.68202 | 33866 ft | 504 kts | 256° |
| 2026-04-30 13:23 | -0.28512 | -159.78474 | 33865 ft | 504 kts | 256° |
| 2026-04-30 13:24 | -0.31709 | -159.92117 | 33870 ft | 505 kts | 257° |
| 2026-04-30 13:25 | -0.34909 | -160.05774 | 33871 ft | 505 kts | 257° |
| 2026-04-30 13:26 | -0.38902 | -160.22819 | 33875 ft | 505 kts | 257° |
| 2026-04-30 13:28 | -0.42900 | -160.39885 | 33874 ft | 505 kts | 257° |
| 2026-04-30 13:28 | -0.45305 | -160.50151 | 33872 ft | 505 kts | 257° |
| 2026-04-30 13:29 | -0.48506 | -160.63815 | 33870 ft | 505 kts | 257° |
| 2026-04-30 13:31 | -0.52507 | -160.80902 | 33872 ft | 506 kts | 257° |
| 2026-04-30 13:32 | -0.56514 | -160.98013 | 33872 ft | 507 kts | 257° |
| 2026-04-30 13:33 | -0.59723 | -161.11717 | 33871 ft | 507 kts | 257° |
| 2026-04-30 13:34 | -0.62134 | -161.22016 | 33873 ft | 507 kts | 257° |
| 2026-04-30 13:35 | -0.65350 | -161.35754 | 33873 ft | 508 kts | 257° |
| 2026-04-30 13:36 | -0.68556 | -161.49450 | 33876 ft | 508 kts | 257° |
| 2026-04-30 13:36 | -0.70968 | -161.59759 | 33869 ft | 508 kts | 257° |
| 2026-04-30 13:37 | -0.73390 | -161.70106 | 33867 ft | 508 kts | 257° |
| 2026-04-30 13:38 | -0.75802 | -161.80418 | 33867 ft | 508 kts | 257° |
| 2026-04-30 13:39 | -0.79013 | -161.94141 | 33868 ft | 509 kts | 257° |
| 2026-04-30 13:40 | -0.81435 | -162.04495 | 33869 ft | 509 kts | 257° |
| 2026-04-30 13:40 | -0.83042 | -162.11366 | 33867 ft | 509 kts | 257° |
| 2026-04-30 13:41 | -0.84659 | -162.18281 | 33866 ft | 509 kts | 257° |
| 2026-04-30 13:41 | -0.86263 | -162.25140 | 33871 ft | 509 kts | 257° |
| 2026-04-30 13:42 | -0.87878 | -162.32046 | 33868 ft | 509 kts | 257° |
| 2026-04-30 13:42 | -0.90293 | -162.42373 | 33871 ft | 509 kts | 257° |
| 2026-04-30 13:43 | -0.91900 | -162.49248 | 33868 ft | 509 kts | 257° |
| 2026-04-30 13:43 | -0.93503 | -162.56105 | 33866 ft | 509 kts | 257° |
| 2026-04-30 13:44 | -0.95118 | -162.63015 | 33871 ft | 509 kts | 257° |
| 2026-04-30 13:44 | -0.96723 | -162.69880 | 33867 ft | 509 kts | 257° |
| 2026-04-30 13:45 | -0.99137 | -162.80211 | 33866 ft | 509 kts | 257° |
| 2026-04-30 13:46 | -1.00480 | -162.85959 | 33867 ft | 509 kts | 257° |
| 2026-04-30 13:46 | -1.02095 | -162.92871 | 33869 ft | 509 kts | 257° |
| 2026-04-30 13:47 | -1.03699 | -162.99735 | 33872 ft | 509 kts | 257° |
| 2026-04-30 13:47 | -1.05310 | -163.06632 | 33871 ft | 509 kts | 257° |
| 2026-04-30 13:48 | -1.06913 | -163.13498 | 33867 ft | 509 kts | 257° |
| 2026-04-30 13:48 | -1.08518 | -163.20367 | 33869 ft | 509 kts | 257° |
| 2026-04-30 13:49 | -1.10131 | -163.27275 | 33865 ft | 509 kts | 257° |
| 2026-04-30 13:49 | -1.11732 | -163.34131 | 33867 ft | 509 kts | 257° |
| 2026-04-30 13:50 | -1.13344 | -163.41039 | 33866 ft | 509 kts | 257° |
| 2026-04-30 13:50 | -1.15748 | -163.51336 | 33867 ft | 509 kts | 257° |
| 2026-04-30 13:51 | -1.17360 | -163.58243 | 33863 ft | 509 kts | 257° |
| 2026-04-30 13:51 | -1.18961 | -163.65103 | 33868 ft | 509 kts | 257° |
| 2026-04-30 13:52 | -1.20563 | -163.71968 | 33868 ft | 509 kts | 257° |
| 2026-04-30 13:52 | -1.22177 | -163.78886 | 33866 ft | 508 kts | 257° |
| 2026-04-30 13:53 | -1.23777 | -163.85748 | 33865 ft | 508 kts | 257° |
| 2026-04-30 13:53 | -1.25377 | -163.92607 | 33866 ft | 508 kts | 257° |
| 2026-04-30 13:54 | -1.27000 | -163.99498 | 33871 ft | 508 kts | 256° |
| 2026-04-30 13:54 | -1.29213 | -164.06222 | 33864 ft | 508 kts | 251° |
| 2026-04-30 13:55 | -1.31620 | -164.12849 | 33866 ft | 508 kts | 250° |
| 2026-04-30 13:55 | -1.34015 | -164.19478 | 33865 ft | 509 kts | 251° |
| 2026-04-30 13:56 | -1.36399 | -164.26158 | 33860 ft | 509 kts | 251° |
| 2026-04-30 13:56 | -1.38753 | -164.32793 | 33855 ft | 509 kts | 251° |
| 2026-04-30 13:57 | -1.41124 | -164.39481 | 33854 ft | 509 kts | 251° |
| 2026-04-30 13:57 | -1.43481 | -164.46127 | 33854 ft | 509 kts | 251° |
| 2026-04-30 13:58 | -1.47025 | -164.56112 | 33857 ft | 509 kts | 251° |
| 2026-04-30 13:59 | -1.49400 | -164.62803 | 33857 ft | 509 kts | 251° |
| 2026-04-30 13:59 | -1.51759 | -164.69451 | 33861 ft | 509 kts | 251° |
| 2026-04-30 14:00 | -1.54118 | -164.76100 | 33858 ft | 509 kts | 251° |
| 2026-04-30 14:00 | -1.57677 | -164.86134 | 33858 ft | 509 kts | 251° |
| 2026-04-30 14:01 | -1.60040 | -164.92794 | 33860 ft | 509 kts | 251° |
| 2026-04-30 14:01 | -1.62399 | -164.99446 | 33857 ft | 509 kts | 251° |
| 2026-04-30 14:02 | -1.64755 | -165.06092 | 33858 ft | 509 kts | 251° |
| 2026-04-30 14:02 | -1.67127 | -165.12781 | 33856 ft | 509 kts | 251° |
| 2026-04-30 14:03 | -1.69479 | -165.19416 | 33858 ft | 508 kts | 251° |
| 2026-04-30 14:03 | -1.71850 | -165.26103 | 33859 ft | 508 kts | 251° |
| 2026-04-30 14:04 | -1.74208 | -165.32758 | 33851 ft | 508 kts | 251° |
| 2026-04-30 14:04 | -1.76560 | -165.39394 | 33859 ft | 508 kts | 251° |
| 2026-04-30 14:05 | -1.78930 | -165.46082 | 33862 ft | 508 kts | 251° |
| 2026-04-30 14:05 | -1.81283 | -165.52722 | 33857 ft | 508 kts | 251° |
| 2026-04-30 14:06 | -1.84827 | -165.62726 | 33855 ft | 508 kts | 251° |
| 2026-04-30 14:07 | -1.88367 | -165.72724 | 33853 ft | 509 kts | 251° |
| 2026-04-30 14:08 | -1.91896 | -165.82688 | 33858 ft | 509 kts | 251° |
| 2026-04-30 14:08 | -1.95439 | -165.92696 | 33856 ft | 509 kts | 250° |
| 2026-04-30 14:09 | -1.97800 | -165.99366 | 33853 ft | 510 kts | 250° |
| 2026-04-30 14:10 | -2.01349 | -166.09395 | 33851 ft | 510 kts | 250° |
| 2026-04-30 14:10 | -2.03707 | -166.16059 | 33856 ft | 510 kts | 250° |
| 2026-04-30 14:11 | -2.06086 | -166.22784 | 33855 ft | 511 kts | 250° |
| 2026-04-30 14:11 | -2.08450 | -166.29465 | 33852 ft | 511 kts | 250° |
| 2026-04-30 14:12 | -2.10811 | -166.36140 | 33853 ft | 511 kts | 250° |
| 2026-04-30 14:12 | -2.13192 | -166.42873 | 33855 ft | 512 kts | 250° |
| 2026-04-30 14:13 | -2.15557 | -166.49565 | 33856 ft | 512 kts | 250° |
| 2026-04-30 14:13 | -2.17937 | -166.56296 | 33856 ft | 513 kts | 250° |
| 2026-04-30 14:14 | -2.20304 | -166.62992 | 33856 ft | 513 kts | 250° |
| 2026-04-30 14:14 | -2.22679 | -166.69713 | 33859 ft | 513 kts | 250° |
| 2026-04-30 14:15 | -2.25066 | -166.76468 | 33853 ft | 513 kts | 250° |
| 2026-04-30 14:15 | -2.27440 | -166.83187 | 33854 ft | 514 kts | 250° |
| 2026-04-30 14:16 | -2.29826 | -166.89942 | 33857 ft | 514 kts | 250° |
| 2026-04-30 14:16 | -2.32201 | -166.96668 | 33851 ft | 515 kts | 250° |
| 2026-04-30 14:17 | -2.34580 | -167.03405 | 33854 ft | 515 kts | 250° |
| 2026-04-30 14:17 | -2.36970 | -167.10173 | 33852 ft | 515 kts | 250° |
| 2026-04-30 14:18 | -2.39350 | -167.16916 | 33849 ft | 515 kts | 250° |
| 2026-04-30 14:18 | -2.42928 | -167.27054 | 33853 ft | 516 kts | 250° |
| 2026-04-30 14:19 | -2.46515 | -167.37222 | 33850 ft | 517 kts | 250° |
| 2026-04-30 14:20 | -2.48902 | -167.43988 | 33857 ft | 517 kts | 250° |
| 2026-04-30 14:20 | -2.52496 | -167.54179 | 33848 ft | 518 kts | 250° |
| 2026-04-30 14:21 | -2.54888 | -167.60963 | 33849 ft | 518 kts | 250° |
| 2026-04-30 14:22 | -2.58491 | -167.71185 | 33851 ft | 519 kts | 250° |
| 2026-04-30 14:22 | -2.62084 | -167.81380 | 33849 ft | 519 kts | 250° |
| 2026-04-30 14:23 | -2.66891 | -167.95026 | 33847 ft | 520 kts | 250° |
| 2026-04-30 14:24 | -2.70488 | -168.05239 | 33849 ft | 520 kts | 250° |
| 2026-04-30 14:25 | -2.75285 | -168.18866 | 33850 ft | 520 kts | 250° |
| 2026-04-30 14:26 | -2.78879 | -168.29080 | 33849 ft | 520 kts | 250° |
| 2026-04-30 14:27 | -2.82482 | -168.39319 | 33846 ft | 520 kts | 250° |
| 2026-04-30 14:27 | -2.84879 | -168.46134 | 33850 ft | 520 kts | 250° |
| 2026-04-30 14:28 | -2.88472 | -168.56355 | 33849 ft | 520 kts | 250° |
| 2026-04-30 14:28 | -2.90869 | -168.63172 | 33849 ft | 520 kts | 250° |
| 2026-04-30 14:29 | -2.95269 | -168.75691 | 33849 ft | 521 kts | 250° |
| 2026-04-30 14:31 | -3.01675 | -168.93930 | 33851 ft | 521 kts | 250° |
| 2026-04-30 14:31 | -3.05279 | -169.04196 | 33846 ft | 522 kts | 250° |
| 2026-04-30 14:32 | -3.08895 | -169.14498 | 33847 ft | 522 kts | 250° |
| 2026-04-30 14:33 | -3.11298 | -169.21345 | 33846 ft | 523 kts | 250° |
| 2026-04-30 14:33 | -3.14908 | -169.31638 | 33846 ft | 523 kts | 250° |
| 2026-04-30 14:34 | -3.16924 | -169.37390 | 33849 ft | 524 kts | 250° |
| 2026-04-30 14:34 | -3.19328 | -169.44245 | 33848 ft | 524 kts | 250° |
| 2026-04-30 14:35 | -3.22951 | -169.54580 | 33846 ft | 525 kts | 250° |
| 2026-04-30 14:36 | -3.25359 | -169.61453 | 33845 ft | 525 kts | 250° |
| 2026-04-30 14:36 | -3.27771 | -169.68340 | 33846 ft | 526 kts | 250° |
| 2026-04-30 14:37 | -3.30193 | -169.75258 | 33845 ft | 526 kts | 250° |
| 2026-04-30 14:37 | -3.32625 | -169.82200 | 33847 ft | 527 kts | 250° |
| 2026-04-30 14:38 | -3.35040 | -169.89099 | 33845 ft | 527 kts | 250° |
| 2026-04-30 14:38 | -3.37461 | -169.96021 | 33848 ft | 528 kts | 250° |
| 2026-04-30 14:39 | -3.39882 | -170.02940 | 33845 ft | 528 kts | 250° |
| 2026-04-30 14:39 | -3.42321 | -170.09912 | 33848 ft | 529 kts | 250° |
| 2026-04-30 14:40 | -3.45965 | -170.20336 | 33849 ft | 529 kts | 250° |
| 2026-04-30 14:40 | -3.48385 | -170.27259 | 33844 ft | 529 kts | 250° |
| 2026-04-30 14:41 | -3.50823 | -170.34233 | 33843 ft | 529 kts | 250° |
| 2026-04-30 14:41 | -3.53248 | -170.41173 | 33845 ft | 529 kts | 250° |
| 2026-04-30 14:42 | -3.55683 | -170.48142 | 33848 ft | 529 kts | 250° |
| 2026-04-30 14:42 | -3.58101 | -170.55073 | 33846 ft | 528 kts | 250° |
| 2026-04-30 14:43 | -3.60517 | -170.61990 | 33845 ft | 528 kts | 250° |
| 2026-04-30 14:43 | -3.62936 | -170.68922 | 33844 ft | 527 kts | 250° |
| 2026-04-30 14:44 | -3.65346 | -170.75831 | 33846 ft | 527 kts | 250° |
| 2026-04-30 14:44 | -3.67768 | -170.82777 | 33845 ft | 526 kts | 250° |
| 2026-04-30 14:45 | -3.70173 | -170.89673 | 33847 ft | 526 kts | 250° |
| 2026-04-30 14:45 | -3.72593 | -170.96614 | 33846 ft | 526 kts | 250° |
| 2026-04-30 14:46 | -3.74992 | -171.03499 | 33847 ft | 526 kts | 249° |
| 2026-04-30 14:46 | -3.77395 | -171.10396 | 33845 ft | 525 kts | 249° |
| 2026-04-30 14:47 | -3.79811 | -171.17332 | 33846 ft | 525 kts | 249° |
| 2026-04-30 14:47 | -3.82215 | -171.24235 | 33844 ft | 525 kts | 249° |
| 2026-04-30 14:48 | -3.84612 | -171.31121 | 33849 ft | 525 kts | 250° |
| 2026-04-30 14:48 | -3.87021 | -171.38045 | 33846 ft | 525 kts | 250° |
| 2026-04-30 14:49 | -3.89417 | -171.44931 | 33847 ft | 525 kts | 249° |
| 2026-04-30 14:49 | -3.91827 | -171.51858 | 33845 ft | 525 kts | 249° |
| 2026-04-30 14:50 | -3.95430 | -171.62220 | 33842 ft | 525 kts | 249° |
| 2026-04-30 14:51 | -3.99029 | -171.72578 | 33846 ft | 526 kts | 250° |
| 2026-04-30 14:52 | -4.02631 | -171.82946 | 33843 ft | 526 kts | 250° |
| 2026-04-30 14:52 | -4.06229 | -171.93308 | 33843 ft | 526 kts | 250° |
| 2026-04-30 14:53 | -4.09825 | -172.03670 | 33844 ft | 526 kts | 249° |
| 2026-04-30 14:54 | -4.14630 | -172.17523 | 33845 ft | 526 kts | 249° |
| 2026-04-30 14:55 | -4.18232 | -172.27914 | 33844 ft | 526 kts | 249° |
| 2026-04-30 14:56 | -4.23032 | -172.41767 | 33842 ft | 527 kts | 249° |
| 2026-04-30 14:57 | -4.26630 | -172.52157 | 33843 ft | 527 kts | 249° |
| 2026-04-30 14:58 | -4.31430 | -172.66026 | 33845 ft | 527 kts | 250° |
| 2026-04-30 14:58 | -4.35025 | -172.76420 | 33837 ft | 527 kts | 249° |
| 2026-04-30 15:00 | -4.41038 | -172.93813 | 33844 ft | 528 kts | 250° |
| 2026-04-30 15:01 | -4.45823 | -173.07666 | 33844 ft | 528 kts | 250° |
| 2026-04-30 15:01 | -4.49431 | -173.18119 | 33844 ft | 528 kts | 250° |
| 2026-04-30 15:02 | -4.51824 | -173.25052 | 33839 ft | 528 kts | 250° |
| 2026-04-30 15:03 | -4.57824 | -173.42450 | 33846 ft | 528 kts | 250° |
| 2026-04-30 15:04 | -4.63800 | -173.59794 | 33840 ft | 528 kts | 250° |
| 2026-04-30 15:06 | -4.69789 | -173.77191 | 33842 ft | 528 kts | 250° |
| 2026-04-30 15:07 | -4.74571 | -173.91094 | 33842 ft | 528 kts | 250° |
| 2026-04-30 15:08 | -4.79357 | -174.05017 | 33842 ft | 527 kts | 250° |
| 2026-04-30 15:09 | -4.85327 | -174.22400 | 33839 ft | 527 kts | 250° |
| 2026-04-30 15:10 | -4.90096 | -174.36298 | 33843 ft | 527 kts | 250° |
| 2026-04-30 15:11 | -4.97242 | -174.57146 | 33839 ft | 527 kts | 250° |
| 2026-04-30 15:13 | -5.04770 | -174.73816 | 33846 ft | 525 kts | 239° |
| 2026-04-30 15:14 | -5.17489 | -174.96044 | 33842 ft | 526 kts | 239° |
| 2026-04-30 15:17 | -5.33736 | -175.24769 | 33838 ft | 526 kts | 239° |
| 2026-04-30 15:19 | -5.48156 | -175.50285 | 33838 ft | 526 kts | 239° |
| 2026-04-30 17:39 | -18.65040 | 169.20656 | 33989 ft | 486 kts | 225° |
| 2026-04-30 17:42 | -18.91107 | 168.98020 | 33992 ft | 485 kts | 225° |
| 2026-04-30 17:43 | -19.04064 | 168.86734 | 33996 ft | 483 kts | 225° |
| 2026-04-30 17:44 | -19.18730 | 168.73929 | 33999 ft | 482 kts | 225° |
| 2026-04-30 17:47 | -19.41911 | 168.53635 | 34004 ft | 481 kts | 225° |
| 2026-04-30 17:48 | -19.59936 | 168.37807 | 34002 ft | 480 kts | 226° |
| 2026-04-30 17:50 | -19.80458 | 168.19728 | 34014 ft | 479 kts | 226° |
| 2026-04-30 17:52 | -19.95769 | 168.06198 | 34010 ft | 478 kts | 226° |
| 2026-04-30 17:54 | -20.18733 | 167.85838 | 34021 ft | 477 kts | 226° |
| 2026-04-30 17:56 | -20.39092 | 167.67720 | 34020 ft | 476 kts | 227° |
| 2026-04-30 17:58 | -20.54325 | 167.54108 | 34020 ft | 475 kts | 227° |
| 2026-04-30 18:00 | -20.74535 | 167.35942 | 34025 ft | 474 kts | 227° |
| 2026-04-30 18:01 | -20.87103 | 167.24613 | 34034 ft | 473 kts | 227° |
| 2026-04-30 18:02 | -21.02166 | 167.11002 | 34033 ft | 472 kts | 227° |
| 2026-04-30 18:04 | -21.17156 | 166.97420 | 34024 ft | 471 kts | 228° |
| 2026-04-30 18:06 | -21.37138 | 166.79255 | 34035 ft | 470 kts | 228° |
| 2026-04-30 18:08 | -21.54528 | 166.63398 | 34039 ft | 468 kts | 228° |
| 2026-04-30 18:10 | -21.74305 | 166.45297 | 34050 ft | 465 kts | 228° |
| 2026-04-30 18:11 | -21.91545 | 166.29452 | 34270 ft | 468 kts | 228° |
| 2026-04-30 18:12 | -21.98896 | 166.22684 | 35147 ft | 461 kts | 228° |
| 2026-04-30 18:13 | -22.03617 | 166.18026 | 35567 ft | 457 kts | 231° |
| 2026-04-30 18:13 | -22.09644 | 166.11687 | 36214 ft | 453 kts | 232° |
| 2026-04-30 18:14 | -22.14905 | 166.06145 | 36702 ft | 453 kts | 232° |
| 2026-04-30 18:15 | -22.21656 | 165.99060 | 37369 ft | 450 kts | 231° |
| 2026-04-30 18:15 | -22.28324 | 165.92064 | 38027 ft | 444 kts | 232° |
| 2026-04-30 18:16 | -22.37081 | 165.82857 | 38047 ft | 435 kts | 232° |
| 2026-04-30 18:17 | -22.41386 | 165.78319 | 38048 ft | 434 kts | 232° |
| 2026-04-30 18:18 | -22.47895 | 165.71452 | 38049 ft | 435 kts | 232° |
| 2026-04-30 18:18 | -22.52221 | 165.66885 | 38050 ft | 437 kts | 232° |
| 2026-04-30 18:19 | -22.56589 | 165.62270 | 38059 ft | 439 kts | 232° |
| 2026-04-30 18:19 | -22.60949 | 165.57658 | 38053 ft | 440 kts | 231° |
| 2026-04-30 18:20 | -22.65321 | 165.53031 | 38056 ft | 441 kts | 231° |
| 2026-04-30 18:20 | -22.69733 | 165.48357 | 38055 ft | 442 kts | 231° |
| 2026-04-30 18:21 | -22.74113 | 165.43712 | 38057 ft | 443 kts | 231° |
| 2026-04-30 18:21 | -22.78503 | 165.39052 | 38059 ft | 444 kts | 231° |
| 2026-04-30 18:22 | -22.82932 | 165.34346 | 38059 ft | 444 kts | 231° |
| 2026-04-30 18:22 | -22.89543 | 165.27315 | 38059 ft | 444 kts | 231° |
| 2026-04-30 18:23 | -22.93941 | 165.22630 | 38062 ft | 445 kts | 231° |
| 2026-04-30 18:23 | -22.98358 | 165.17921 | 38060 ft | 445 kts | 231° |
| 2026-04-30 18:24 | -23.04969 | 165.10864 | 38064 ft | 445 kts | 231° |
| 2026-04-30 18:25 | -23.09401 | 165.06127 | 38065 ft | 446 kts | 231° |
| 2026-04-30 18:25 | -23.16030 | 164.99034 | 38071 ft | 446 kts | 231° |
| 2026-04-30 18:26 | -23.22650 | 164.91940 | 38076 ft | 447 kts | 231° |
| 2026-04-30 18:27 | -23.29286 | 164.84818 | 38066 ft | 448 kts | 231° |
| 2026-04-30 18:28 | -23.35960 | 164.77643 | 38069 ft | 449 kts | 231° |
| 2026-04-30 18:28 | -23.42621 | 164.70474 | 38070 ft | 450 kts | 231° |
| 2026-04-30 18:29 | -23.51525 | 164.60873 | 38077 ft | 451 kts | 231° |
| 2026-04-30 18:30 | -23.60428 | 164.51253 | 38076 ft | 452 kts | 231° |
| 2026-04-30 18:31 | -23.66399 | 164.44788 | 38083 ft | 453 kts | 231° |
| 2026-04-30 18:32 | -23.73113 | 164.37510 | 38082 ft | 454 kts | 231° |
| 2026-04-30 18:33 | -23.79833 | 164.30213 | 38086 ft | 455 kts | 231° |
| 2026-04-30 18:33 | -23.86569 | 164.22888 | 38083 ft | 456 kts | 231° |
| 2026-04-30 18:34 | -23.93317 | 164.15538 | 38085 ft | 457 kts | 231° |
| 2026-04-30 18:35 | -23.97839 | 164.10607 | 38090 ft | 458 kts | 231° |
| 2026-04-30 18:35 | -24.02335 | 164.05698 | 38092 ft | 458 kts | 231° |
| 2026-04-30 18:36 | -24.09105 | 163.98297 | 38090 ft | 459 kts | 231° |
| 2026-04-30 18:37 | -24.15882 | 163.90877 | 38089 ft | 460 kts | 231° |
| 2026-04-30 18:37 | -24.20429 | 163.85892 | 38090 ft | 461 kts | 231° |
| 2026-04-30 18:38 | -24.24952 | 163.80927 | 38094 ft | 462 kts | 231° |
| 2026-04-30 18:38 | -24.29481 | 163.75951 | 38087 ft | 462 kts | 231° |
| 2026-04-30 18:39 | -24.34036 | 163.70942 | 38085 ft | 463 kts | 231° |
| 2026-04-30 18:39 | -24.38575 | 163.65944 | 38093 ft | 463 kts | 231° |
| 2026-04-30 18:40 | -24.43137 | 163.60915 | 38096 ft | 464 kts | 231° |
| 2026-04-30 18:40 | -24.47674 | 163.55908 | 38102 ft | 464 kts | 231° |
| 2026-04-30 18:41 | -24.52215 | 163.50892 | 38101 ft | 465 kts | 231° |
| 2026-04-30 18:41 | -24.56768 | 163.45857 | 38096 ft | 465 kts | 231° |
| 2026-04-30 18:42 | -24.61338 | 163.40797 | 38100 ft | 465 kts | 231° |
| 2026-04-30 18:42 | -24.68171 | 163.33223 | 38103 ft | 466 kts | 231° |
| 2026-04-30 18:45 | -24.93292 | 163.05262 | 38107 ft | 468 kts | 231° |
| 2026-04-30 18:46 | -24.97456 | 162.99841 | 38107 ft | 461 kts | 239° |
| 2026-04-30 18:46 | -25.00775 | 162.93821 | 38103 ft | 456 kts | 248° |
| 2026-04-30 18:47 | -25.03512 | 162.87554 | 38110 ft | 456 kts | 248° |
| 2026-04-30 18:47 | -25.06224 | 162.81215 | 38107 ft | 456 kts | 248° |
| 2026-04-30 18:48 | -25.08944 | 162.74903 | 38109 ft | 457 kts | 248° |
| 2026-04-30 18:48 | -25.11686 | 162.68574 | 38108 ft | 457 kts | 248° |
| 2026-04-30 18:49 | -25.14421 | 162.62271 | 38110 ft | 457 kts | 248° |
| 2026-04-30 18:49 | -25.17172 | 162.55922 | 38110 ft | 457 kts | 248° |
| 2026-04-30 18:50 | -25.19912 | 162.49589 | 38109 ft | 458 kts | 248° |
| 2026-04-30 18:50 | -25.22660 | 162.43228 | 38111 ft | 458 kts | 248° |
| 2026-04-30 18:51 | -25.25390 | 162.36898 | 38113 ft | 458 kts | 248° |
| 2026-04-30 18:51 | -25.28134 | 162.30524 | 38112 ft | 458 kts | 248° |
| 2026-04-30 18:52 | -25.30860 | 162.24186 | 38113 ft | 458 kts | 248° |
| 2026-04-30 18:52 | -25.33602 | 162.17800 | 38116 ft | 459 kts | 248° |
| 2026-04-30 18:53 | -25.36331 | 162.11436 | 38115 ft | 459 kts | 248° |
| 2026-04-30 18:53 | -25.39058 | 162.05066 | 38117 ft | 459 kts | 248° |
| 2026-04-30 18:54 | -25.41779 | 161.98702 | 38114 ft | 459 kts | 248° |
| 2026-04-30 18:54 | -25.44504 | 161.92318 | 38117 ft | 460 kts | 248° |
| 2026-04-30 18:55 | -25.47227 | 161.85930 | 38117 ft | 460 kts | 248° |
| 2026-04-30 18:55 | -25.51316 | 161.76320 | 38123 ft | 461 kts | 248° |
| 2026-04-30 18:56 | -25.55403 | 161.66694 | 38120 ft | 461 kts | 248° |
| 2026-04-30 18:57 | -25.59504 | 161.57012 | 38120 ft | 462 kts | 248° |
| 2026-04-30 18:57 | -25.62223 | 161.50582 | 38125 ft | 462 kts | 248° |
| 2026-04-30 18:58 | -25.66310 | 161.40900 | 38123 ft | 463 kts | 248° |
| 2026-04-30 18:59 | -25.70390 | 161.31209 | 38121 ft | 463 kts | 248° |
| 2026-04-30 19:00 | -25.75822 | 161.18275 | 38127 ft | 464 kts | 248° |
| 2026-04-30 19:01 | -25.81271 | 161.05261 | 38124 ft | 464 kts | 248° |
| 2026-04-30 19:02 | -25.85336 | 160.95528 | 38132 ft | 465 kts | 248° |
| 2026-04-30 19:03 | -25.90767 | 160.82488 | 38130 ft | 465 kts | 248° |
| 2026-04-30 19:04 | -25.96189 | 160.69430 | 38130 ft | 465 kts | 249° |
| 2026-04-30 19:05 | -26.01591 | 160.56379 | 38142 ft | 466 kts | 249° |
| 2026-04-30 19:06 | -26.07003 | 160.43262 | 38141 ft | 467 kts | 249° |
| 2026-04-30 19:06 | -26.11052 | 160.33422 | 38136 ft | 467 kts | 249° |
| 2026-04-30 19:07 | -26.15100 | 160.23564 | 38142 ft | 468 kts | 249° |
| 2026-04-30 19:08 | -26.20501 | 160.10373 | 38140 ft | 468 kts | 249° |
| 2026-04-30 19:09 | -26.24540 | 160.00480 | 38138 ft | 469 kts | 249° |
| 2026-04-30 19:09 | -26.27229 | 159.93881 | 38140 ft | 469 kts | 249° |
| 2026-04-30 19:10 | -26.32619 | 159.80622 | 38153 ft | 469 kts | 249° |
| 2026-04-30 19:11 | -26.36657 | 159.70660 | 38150 ft | 470 kts | 249° |
| 2026-04-30 19:12 | -26.39343 | 159.64023 | 38152 ft | 470 kts | 249° |
| 2026-04-30 19:12 | -26.42036 | 159.57355 | 38153 ft | 470 kts | 249° |
| 2026-04-30 19:13 | -26.47389 | 159.44071 | 38159 ft | 471 kts | 249° |
| 2026-04-30 19:14 | -26.50080 | 159.37376 | 38156 ft | 471 kts | 249° |
| 2026-04-30 19:14 | -26.52753 | 159.30714 | 38159 ft | 471 kts | 249° |
| 2026-04-30 19:15 | -26.55434 | 159.24025 | 38159 ft | 471 kts | 249° |
| 2026-04-30 19:15 | -26.59444 | 159.13996 | 38159 ft | 472 kts | 249° |
| 2026-04-30 19:16 | -26.62102 | 159.07333 | 38162 ft | 472 kts | 249° |
| 2026-04-30 19:17 | -26.66117 | 158.97250 | 38165 ft | 472 kts | 249° |
| 2026-04-30 19:17 | -26.70111 | 158.87194 | 38167 ft | 473 kts | 249° |
| 2026-04-30 19:18 | -26.74106 | 158.77113 | 38168 ft | 473 kts | 249° |
| 2026-04-30 19:19 | -26.76770 | 158.70375 | 38174 ft | 473 kts | 249° |
| 2026-04-30 19:19 | -26.80309 | 158.61408 | 38172 ft | 474 kts | 249° |
| 2026-04-30 19:20 | -26.82961 | 158.54673 | 38174 ft | 474 kts | 249° |
| 2026-04-30 19:21 | -26.87059 | 158.44555 | 38178 ft | 476 kts | 244° |
| 2026-04-30 19:22 | -26.94913 | 158.32532 | 38187 ft | 483 kts | 233° |
| 2026-04-30 19:23 | -27.07891 | 158.15219 | 38186 ft | 484 kts | 234° |
| 2026-04-30 19:24 | -27.14355 | 158.06483 | 38186 ft | 484 kts | 234° |
| 2026-04-30 19:25 | -27.25082 | 157.91954 | 38193 ft | 484 kts | 234° |
| 2026-04-30 19:26 | -27.33684 | 157.80272 | 38200 ft | 484 kts | 234° |
| 2026-04-30 19:27 | -27.40115 | 157.71515 | 38202 ft | 485 kts | 234° |
| 2026-04-30 19:28 | -27.46556 | 157.62730 | 38202 ft | 485 kts | 234° |
| 2026-04-30 19:29 | -27.55148 | 157.50981 | 38207 ft | 485 kts | 234° |
| 2026-04-30 19:30 | -27.63718 | 157.39229 | 38213 ft | 486 kts | 234° |
| 2026-04-30 19:31 | -27.72285 | 157.27450 | 38220 ft | 486 kts | 234° |
| 2026-04-30 19:31 | -27.78710 | 157.18595 | 38224 ft | 486 kts | 234° |
| 2026-04-30 19:32 | -27.83008 | 157.12662 | 38228 ft | 486 kts | 234° |
| 2026-04-30 19:32 | -27.87280 | 157.06757 | 38228 ft | 486 kts | 234° |
| 2026-04-30 19:33 | -27.91542 | 157.00857 | 38234 ft | 486 kts | 234° |
| 2026-04-30 19:33 | -27.95835 | 156.94905 | 38236 ft | 486 kts | 234° |
| 2026-04-30 19:34 | -28.00089 | 156.89000 | 38240 ft | 486 kts | 234° |
| 2026-04-30 19:35 | -28.06500 | 156.80085 | 38245 ft | 486 kts | 234° |
| 2026-04-30 19:35 | -28.10765 | 156.74144 | 38236 ft | 486 kts | 234° |
| 2026-04-30 19:36 | -28.15035 | 156.68187 | 38238 ft | 487 kts | 234° |
| 2026-04-30 19:36 | -28.18607 | 156.63197 | 38242 ft | 487 kts | 234° |
| 2026-04-30 19:37 | -28.22430 | 156.57835 | 38267 ft | 486 kts | 234° |
| 2026-04-30 19:37 | -28.26671 | 156.51904 | 38257 ft | 487 kts | 234° |
| 2026-04-30 19:38 | -28.30955 | 156.45903 | 38251 ft | 487 kts | 234° |
| 2026-04-30 19:38 | -28.35200 | 156.39945 | 38258 ft | 487 kts | 234° |
| 2026-04-30 19:39 | -28.39446 | 156.33972 | 38267 ft | 487 kts | 234° |
| 2026-04-30 19:39 | -28.43714 | 156.27962 | 38265 ft | 488 kts | 234° |
| 2026-04-30 19:40 | -28.47964 | 156.21968 | 38262 ft | 488 kts | 234° |
| 2026-04-30 19:40 | -28.52231 | 156.15941 | 38273 ft | 488 kts | 234° |
| 2026-04-30 19:41 | -28.56477 | 156.09937 | 38272 ft | 488 kts | 234° |
| 2026-04-30 19:41 | -28.60708 | 156.03944 | 38276 ft | 488 kts | 234° |
| 2026-04-30 19:42 | -28.64970 | 155.97898 | 38278 ft | 488 kts | 234° |
| 2026-04-30 19:42 | -28.69195 | 155.91897 | 38284 ft | 488 kts | 234° |
| 2026-04-30 19:43 | -28.73457 | 155.85835 | 38287 ft | 488 kts | 234° |
| 2026-04-30 19:44 | -28.79809 | 155.76783 | 38290 ft | 488 kts | 234° |
| 2026-04-30 19:44 | -28.84037 | 155.70747 | 38289 ft | 488 kts | 234° |
| 2026-04-30 19:45 | -28.88286 | 155.64673 | 38289 ft | 488 kts | 234° |
| 2026-04-30 19:45 | -28.92494 | 155.58648 | 38293 ft | 488 kts | 234° |
| 2026-04-30 19:46 | -28.96732 | 155.52572 | 38296 ft | 488 kts | 234° |
| 2026-04-30 19:46 | -29.00947 | 155.46518 | 38298 ft | 488 kts | 234° |
| 2026-04-30 19:47 | -29.05186 | 155.40423 | 38301 ft | 488 kts | 234° |
| 2026-04-30 19:47 | -29.09396 | 155.34360 | 38302 ft | 488 kts | 234° |
| 2026-04-30 19:48 | -29.13603 | 155.28293 | 38307 ft | 488 kts | 234° |
| 2026-04-30 19:48 | -29.17827 | 155.22191 | 38309 ft | 488 kts | 234° |
| 2026-04-30 19:49 | -29.22049 | 155.16083 | 38306 ft | 488 kts | 234° |
| 2026-04-30 19:49 | -29.28363 | 155.06933 | 38314 ft | 488 kts | 234° |
| 2026-04-30 19:50 | -29.32549 | 155.00856 | 38317 ft | 488 kts | 234° |
| 2026-04-30 19:50 | -29.36765 | 154.94724 | 38320 ft | 488 kts | 234° |
| 2026-04-30 19:51 | -29.40943 | 154.88641 | 38319 ft | 488 kts | 234° |
| 2026-04-30 19:51 | -29.45151 | 154.82504 | 38322 ft | 488 kts | 234° |
| 2026-04-30 19:52 | -29.49334 | 154.76395 | 38328 ft | 488 kts | 234° |
| 2026-04-30 19:52 | -29.53537 | 154.70246 | 38327 ft | 488 kts | 234° |
| 2026-04-30 19:53 | -29.57714 | 154.64126 | 38331 ft | 488 kts | 234° |
| 2026-04-30 19:53 | -29.61911 | 154.57970 | 38336 ft | 488 kts | 234° |
| 2026-04-30 19:54 | -29.66073 | 154.51853 | 38335 ft | 488 kts | 234° |
| 2026-04-30 19:54 | -29.70260 | 154.45693 | 38339 ft | 488 kts | 234° |
| 2026-04-30 19:55 | -29.74420 | 154.39561 | 38339 ft | 488 kts | 234° |
| 2026-04-30 19:55 | -29.78610 | 154.33376 | 38342 ft | 488 kts | 234° |
| 2026-04-30 19:56 | -29.82766 | 154.27233 | 38348 ft | 488 kts | 234° |
| 2026-04-30 19:56 | -29.86950 | 154.21037 | 38345 ft | 488 kts | 234° |
| 2026-04-30 19:57 | -29.91106 | 154.14875 | 38349 ft | 488 kts | 234° |
| 2026-04-30 19:57 | -29.95258 | 154.08708 | 38350 ft | 488 kts | 234° |
| 2026-04-30 19:58 | -29.99396 | 154.02553 | 38354 ft | 488 kts | 234° |
| 2026-04-30 19:58 | -30.03561 | 153.96350 | 38359 ft | 488 kts | 234° |
| 2026-04-30 19:59 | -30.07694 | 153.90183 | 38356 ft | 487 kts | 234° |
| 2026-04-30 20:00 | -30.13934 | 153.80855 | 38361 ft | 487 kts | 234° |
| 2026-04-30 20:00 | -30.18055 | 153.74682 | 38366 ft | 487 kts | 234° |
| 2026-04-30 20:01 | -30.24276 | 153.65347 | 38371 ft | 487 kts | 234° |
| 2026-04-30 20:01 | -30.26255 | 153.62345 | 38373 ft | 487 kts | 236° |
| 2026-04-30 20:02 | -30.30981 | 153.53588 | 38384 ft | 485 kts | 241° |
| 2026-04-30 20:03 | -30.36104 | 153.43504 | 38378 ft | 485 kts | 241° |
| 2026-04-30 20:03 | -30.39562 | 153.36756 | 38380 ft | 485 kts | 240° |
| 2026-04-30 20:04 | -30.43010 | 153.30045 | 38374 ft | 485 kts | 240° |
| 2026-04-30 20:05 | -30.48178 | 153.19970 | 38382 ft | 485 kts | 240° |
| 2026-04-30 20:05 | -30.53332 | 153.09888 | 38386 ft | 485 kts | 240° |
| 2026-04-30 20:06 | -30.56198 | 153.04271 | 38389 ft | 485 kts | 240° |
| 2026-04-30 20:06 | -30.59638 | 152.97518 | 38396 ft | 485 kts | 240° |
| 2026-04-30 20:07 | -30.63072 | 152.90764 | 38411 ft | 485 kts | 240° |
| 2026-04-30 20:08 | -30.68206 | 152.80647 | 38414 ft | 485 kts | 240° |
| 2026-04-30 20:08 | -30.71633 | 152.73877 | 38412 ft | 485 kts | 240° |
| 2026-04-30 20:09 | -30.75045 | 152.67127 | 38414 ft | 485 kts | 240° |
| 2026-04-30 20:09 | -30.80432 | 152.57249 | 38426 ft | 485 kts | 233° |
| 2026-04-30 20:10 | -30.87405 | 152.48715 | 38437 ft | 486 kts | 225° |
| 2026-04-30 20:11 | -30.94715 | 152.40480 | 38434 ft | 486 kts | 225° |
| 2026-04-30 20:11 | -30.99530 | 152.34984 | 38441 ft | 486 kts | 226° |
| 2026-04-30 20:12 | -31.06746 | 152.26695 | 38447 ft | 485 kts | 226° |
| 2026-04-30 20:13 | -31.11567 | 152.21148 | 38448 ft | 485 kts | 226° |
| 2026-04-30 20:13 | -31.16353 | 152.15636 | 38455 ft | 485 kts | 226° |
| 2026-04-30 20:14 | -31.21138 | 152.10117 | 38454 ft | 485 kts | 226° |
| 2026-04-30 20:14 | -31.25955 | 152.04552 | 38458 ft | 484 kts | 226° |
| 2026-04-30 20:15 | -31.30727 | 151.99031 | 38459 ft | 484 kts | 226° |
| 2026-04-30 20:15 | -31.35494 | 151.93506 | 38459 ft | 484 kts | 226° |
| 2026-04-30 20:16 | -31.40294 | 151.87943 | 38461 ft | 484 kts | 225° |
| 2026-04-30 20:16 | -31.45448 | 151.82926 | 38466 ft | 485 kts | 218° |
| 2026-04-30 20:17 | -31.50917 | 151.78262 | 38457 ft | 485 kts | 217° |
| 2026-04-30 20:17 | -31.56342 | 151.73620 | 38463 ft | 485 kts | 218° |
| 2026-04-30 20:18 | -31.61768 | 151.68918 | 38464 ft | 485 kts | 218° |
| 2026-04-30 20:18 | -31.67201 | 151.64189 | 38459 ft | 485 kts | 218° |
| 2026-04-30 20:19 | -31.72628 | 151.59459 | 38462 ft | 484 kts | 218° |
| 2026-04-30 20:19 | -31.77980 | 151.54792 | 38451 ft | 474 kts | 218° |
| 2026-04-30 20:19 | -31.80618 | 151.52489 | 37929 ft | 471 kts | 218° |
| 2026-04-30 20:20 | -31.83254 | 151.50177 | 37249 ft | 468 kts | 217° |
| 2026-04-30 20:20 | -31.85834 | 151.47906 | 36494 ft | 468 kts | 217° |
| 2026-04-30 20:20 | -31.88446 | 151.45606 | 35678 ft | 469 kts | 216° |
| 2026-04-30 20:20 | -31.91071 | 151.43293 | 34799 ft | 471 kts | 216° |
| 2026-04-30 20:21 | -31.93715 | 151.40962 | 33774 ft | 475 kts | 216° |
| 2026-04-30 20:21 | -31.96346 | 151.38642 | 32761 ft | 478 kts | 216° |
| 2026-04-30 20:21 | -31.99018 | 151.36285 | 31726 ft | 481 kts | 216° |
| 2026-04-30 20:21 | -32.01710 | 151.33908 | 30877 ft | 482 kts | 216° |
| 2026-04-30 20:22 | -32.04384 | 151.31545 | 30195 ft | 477 kts | 216° |
| 2026-04-30 20:22 | -32.07005 | 151.29234 | 29694 ft | 474 kts | 216° |
| 2026-04-30 20:22 | -32.07901 | 151.28445 | 29531 ft | 474 kts | 216° |
| 2026-04-30 20:22 | -32.12325 | 151.24547 | 28737 ft | 478 kts | 216° |
| 2026-04-30 20:23 | -32.14967 | 151.22216 | 28242 ft | 476 kts | 216° |
| 2026-04-30 20:23 | -32.17615 | 151.19876 | 27774 ft | 472 kts | 216° |
| 2026-04-30 20:23 | -32.20255 | 151.17542 | 27309 ft | 469 kts | 216° |
| 2026-04-30 20:23 | -32.22834 | 151.15259 | 26852 ft | 466 kts | 216° |
| 2026-04-30 20:24 | -32.25433 | 151.12957 | 26380 ft | 463 kts | 216° |
| 2026-04-30 20:24 | -32.28013 | 151.10670 | 25987 ft | 462 kts | 216° |
| 2026-04-30 20:24 | -32.30553 | 151.08417 | 25722 ft | 459 kts | 216° |
| 2026-04-30 20:24 | -32.33095 | 151.06161 | 25488 ft | 455 kts | 216° |
| 2026-04-30 20:25 | -32.38126 | 151.01690 | 24922 ft | 451 kts | 216° |
| 2026-04-30 20:25 | -32.40633 | 150.99459 | 24648 ft | 450 kts | 216° |
| 2026-04-30 20:26 | -32.45638 | 150.95003 | 23932 ft | 447 kts | 217° |
| 2026-04-30 20:26 | -32.51161 | 150.92021 | 23017 ft | 443 kts | 188° |
| 2026-04-30 20:26 | -32.54222 | 150.91846 | 22820 ft | 436 kts | 175° |
| 2026-04-30 20:27 | -32.60154 | 150.92946 | 21994 ft | 434 kts | 170° |
| 2026-04-30 20:27 | -32.66093 | 150.94096 | 21514 ft | 428 kts | 171° |
| 2026-04-30 20:28 | -32.71972 | 150.95169 | 20970 ft | 425 kts | 171° |
| 2026-04-30 20:28 | -32.77792 | 150.96218 | 20431 ft | 423 kts | 171° |
| 2026-04-30 20:29 | -32.83081 | 150.97163 | 20005 ft | 420 kts | 171° |
| 2026-04-30 20:30 | -32.91710 | 150.98690 | 19311 ft | 416 kts | 171° |
| 2026-04-30 20:30 | -33.00241 | 151.00206 | 18642 ft | 412 kts | 171° |
| 2026-04-30 20:31 | -33.08703 | 151.01714 | 17918 ft | 409 kts | 171° |
| 2026-04-30 20:32 | -33.17088 | 151.03212 | 17266 ft | 405 kts | 171° |
| 2026-04-30 20:32 | -33.22588 | 151.04593 | 16681 ft | 403 kts | 156° |
| 2026-04-30 20:33 | -33.25006 | 151.06219 | 16434 ft | 403 kts | 144° |
| 2026-04-30 20:33 | -33.28992 | 151.10860 | 15969 ft | 399 kts | 132° |
| 2026-04-30 20:33 | -33.30866 | 151.13287 | 15761 ft | 399 kts | 132° |
| 2026-04-30 20:34 | -33.34606 | 151.18125 | 15452 ft | 395 kts | 133° |
| 2026-04-30 20:34 | -33.38367 | 151.22945 | 15109 ft | 394 kts | 133° |
| 2026-04-30 20:35 | -33.40219 | 151.25307 | 14954 ft | 393 kts | 133° |
| 2026-04-30 20:35 | -33.42096 | 151.27699 | 14778 ft | 393 kts | 133° |
| 2026-04-30 20:35 | -33.45832 | 151.32460 | 14482 ft | 391 kts | 133° |
| 2026-04-30 20:36 | -33.47699 | 151.34842 | 14347 ft | 390 kts | 133° |
| 2026-04-30 20:36 | -33.49540 | 151.37190 | 14191 ft | 389 kts | 133° |
| 2026-04-30 20:36 | -33.53222 | 151.41894 | 13890 ft | 387 kts | 133° |
| 2026-04-30 20:37 | -33.55072 | 151.44258 | 13746 ft | 386 kts | 133° |
| 2026-04-30 20:37 | -33.56906 | 151.46606 | 13614 ft | 385 kts | 132° |
| 2026-04-30 20:37 | -33.58743 | 151.48957 | 13475 ft | 384 kts | 133° |
| 2026-04-30 20:37 | -33.60553 | 151.51275 | 13332 ft | 384 kts | 132° |
| 2026-04-30 20:38 | -33.62383 | 151.53621 | 13200 ft | 383 kts | 133° |
| 2026-04-30 20:38 | -33.64207 | 151.55962 | 13059 ft | 382 kts | 133° |
| 2026-04-30 20:38 | -33.66005 | 151.58270 | 12939 ft | 381 kts | 132° |
| 2026-04-30 20:39 | -33.69631 | 151.62931 | 12670 ft | 380 kts | 132° |
| 2026-04-30 20:39 | -33.71418 | 151.65230 | 12551 ft | 379 kts | 132° |
| 2026-04-30 20:39 | -33.73221 | 151.67550 | 12432 ft | 379 kts | 132° |
| 2026-04-30 20:40 | -33.76803 | 151.72166 | 12193 ft | 378 kts | 132° |
| 2026-04-30 20:40 | -33.78591 | 151.74473 | 12077 ft | 377 kts | 132° |
| 2026-04-30 20:40 | -33.80384 | 151.76788 | 11903 ft | 377 kts | 132° |
| 2026-04-30 20:41 | -33.83922 | 151.81358 | 11519 ft | 361 kts | 132° |
| 2026-04-30 20:41 | -33.85591 | 151.83515 | 11408 ft | 348 kts | 132° |
| 2026-04-30 20:41 | -33.87223 | 151.85626 | 11137 ft | 340 kts | 132° |
| 2026-04-30 20:41 | -33.88808 | 151.87678 | 11059 ft | 327 kts | 132° |
| 2026-04-30 20:42 | -33.90325 | 151.89643 | 10966 ft | 315 kts | 132° |
| 2026-04-30 20:42 | -33.91779 | 151.91528 | 10886 ft | 304 kts | 132° |
| 2026-04-30 20:42 | -33.95243 | 151.93842 | 10198 ft | 295 kts | 182° |
| 2026-04-30 20:43 | -33.97195 | 151.93248 | 10047 ft | 286 kts | 207° |
| 2026-04-30 20:43 | -33.98779 | 151.91841 | 9769 ft | 281 kts | 228° |
| 2026-04-30 20:43 | -33.99884 | 151.89905 | 9405 ft | 280 kts | 245° |
| 2026-04-30 20:44 | -34.00394 | 151.85355 | 8556 ft | 279 kts | 270° |
| 2026-04-30 20:44 | -34.00439 | 151.83018 | 8267 ft | 277 kts | 269° |
| 2026-04-30 20:44 | -34.00555 | 151.78486 | 8014 ft | 265 kts | 270° |
| 2026-04-30 20:45 | -34.00246 | 151.73991 | 8013 ft | 276 kts | 279° |
| 2026-04-30 20:45 | -33.99976 | 151.71692 | 8009 ft | 277 kts | 279° |
| 2026-04-30 20:45 | -33.99713 | 151.69392 | 7999 ft | 276 kts | 279° |
| 2026-04-30 20:46 | -33.98983 | 151.62572 | 7990 ft | 272 kts | 278° |
| 2026-04-30 20:46 | -33.98748 | 151.60315 | 8000 ft | 272 kts | 279° |
| 2026-04-30 20:47 | -33.98273 | 151.55756 | 7773 ft | 280 kts | 278° |
| 2026-04-30 20:47 | -33.98029 | 151.53419 | 7553 ft | 281 kts | 278° |
| 2026-04-30 20:48 | -33.97552 | 151.48826 | 7072 ft | 275 kts | 278° |
| 2026-04-30 20:48 | -33.97315 | 151.46560 | 6842 ft | 271 kts | 278° |
| 2026-04-30 20:48 | -33.97080 | 151.44317 | 6598 ft | 269 kts | 279° |
| 2026-04-30 20:48 | -33.96846 | 151.42093 | 6367 ft | 267 kts | 279° |
| 2026-04-30 20:49 | -33.96696 | 151.39880 | 6119 ft | 263 kts | 265° |
| 2026-04-30 20:49 | -33.97308 | 151.37806 | 5897 ft | 269 kts | 234° |
| 2026-04-30 20:49 | -33.98691 | 151.36289 | 5643 ft | 270 kts | 211° |
| 2026-04-30 20:50 | -34.01970 | 151.34040 | 5079 ft | 274 kts | 209° |
| 2026-04-30 20:50 | -34.03626 | 151.32909 | 4805 ft | 272 kts | 209° |
| 2026-04-30 20:50 | -34.05268 | 151.31783 | 4524 ft | 270 kts | 209° |
| 2026-04-30 20:50 | -34.06894 | 151.30662 | 4251 ft | 268 kts | 210° |
| 2026-04-30 20:51 | -34.08507 | 151.29545 | 3987 ft | 266 kts | 210° |
| 2026-04-30 20:51 | -34.11693 | 151.27332 | 3456 ft | 262 kts | 210° |
| 2026-04-30 20:51 | -34.13101 | 151.26028 | 3177 ft | 252 kts | 236° |
| 2026-04-30 20:52 | -34.13623 | 151.24129 | 3032 ft | 240 kts | 274° |
| 2026-04-30 20:52 | -34.13056 | 151.22334 | 2868 ft | 228 kts | 314° |
| 2026-04-30 20:52 | -34.10305 | 151.21829 | 2520 ft | 201 kts | 11° |
| 2026-04-30 20:53 | -34.08988 | 151.21647 | 2333 ft | 192 kts | 338° |
| 2026-04-30 20:53 | -34.07715 | 151.21102 | 2212 ft | 192 kts | 345° |
| 2026-04-30 20:53 | -34.06468 | 151.20741 | 2014 ft | 177 kts | 348° |
| 2026-04-30 20:54 | -34.04260 | 151.20159 | 1623 ft | 156 kts | 348° |
| 2026-04-30 20:54 | -34.03204 | 151.19880 | 1434 ft | 158 kts | 348° |
| 2026-04-30 20:54 | -34.02125 | 151.19594 | 1189 ft | 158 kts | 347° |
| 2026-04-30 20:55 | -34.00061 | 151.19047 | 774 ft | 143 kts | 347° |
| 2026-04-30 20:55 | -33.99100 | 151.18792 | 588 ft | 141 kts | 347° |
| 2026-04-30 20:55 | -33.98143 | 151.18539 | 404 ft | 140 kts | 347° |
| 2026-04-30 20:56 | -33.96268 | 151.18022 | 37 ft | 133 kts | 347° |
| 2026-04-30 20:56 | -33.95466 | 151.17815 | 27 ft | 105 kts | 347° |
| 2026-04-30 20:56 | -33.94453 | 151.17549 | 29 ft | 71 kts | 347° |
| 2026-04-30 20:57 | -33.93993 | 151.17433 | 24 ft | 37 kts | 346° |
| 2026-04-30 20:57 | -33.93958 | 151.17290 | 24 ft | 19 kts | 256° |
| 2026-04-30 20:57 | -33.93991 | 151.17132 | 24 ft | 23 kts | 255° |
| 2026-04-30 20:58 | -33.94096 | 151.16695 | 26 ft | 7 kts | 253° |
| 2026-04-30 20:58 | -33.94086 | 151.16643 | 32 ft | 7 kts | 317° |
| 2026-04-30 20:58 | -33.94041 | 151.16622 | 30 ft | 7 kts | 344° |
| 2026-04-30 20:58 | -33.94007 | 151.16611 | 29 ft | 0 kts | 345° |